Data for 07/21/2011

Time Sea-Level Adjusted Pressure Absolute Pressure Temperature Relative Humidity Dew Point Precipitation   
(mb) (inHg) (mb) (inHg) (C) (F) (%) (C) (F) (mm) (in)
00:01 1020 30.12 849 25.07 10 50 74 5.6 42.1 -85.4 -3.362
00:02 1020 30.12 849 25.07 10 50.1 75 5.8 42.4 -85.4 -3.362
00:03 1020 30.12 849 25.07 9.7 49.5 77 5.9 42.6 -85.4 -3.362
00:04 1020 30.12 849 25.07 9.4 48.8 79 5.9 42.6 -85.3 -3.358
00:05 1020 30.12 849 25.07 9.1 48.3 80 5.8 42.4 -85.2 -3.354
00:06 1020 30.12 849 25.07 9 48.2 80 5.7 42.3 -85.1 -3.35
00:07 1020 30.12 849 25.07 8.9 48.1 80 5.6 42.1 -85 -3.346
00:08 1020 30.12 849 25.07 8.9 48 80 5.6 42.1 -84.9 -3.343
00:09 1020 30.12 849 25.07 8.7 47.7 81 5.6 42 -84.8 -3.339
00:10 1020 30.12 849 25.07 8.6 47.5 81 5.6 42 -84.8 -3.339
00:11 1020 30.12 849 25.07 8.5 47.3 82 5.5 42 -84.7 -3.335
00:12 1020 30.12 849 25.07 8.3 47 82 5.5 41.8 -84.6 -3.331
00:13 1020 30.12 849 25.07 8.2 46.8 83 5.4 41.8 -84.5 -3.327
00:14 1020 30.12 849 25.07 8.1 46.6 83 5.4 41.8 -84.4 -3.323
00:15 1020 30.12 849 25.07 8.1 46.6 83 5.4 41.8 -84.4 -3.323
00:16 1020 30.12 849 25.07 8.3 46.9 82 5.4 41.8 -84.4 -3.323
00:17 1020 30.12 849 25.07 8.3 47 82 5.4 41.7 -84.3 -3.319
00:18 1020 30.12 849 25.07 8.4 47 82 5.5 41.8 -84.4 -3.323
00:19 1020 30.12 849 25.07 8.3 47 82 5.4 41.7 -84.4 -3.323
00:20 1020 30.12 849 25.07 8.4 47 82 5.4 41.7 -84.4 -3.323
00:21 1020 30.12 849 25.07 8.3 47 82 5.4 41.7 -84.4 -3.323
00:22 1020 30.12 849 25.07 8.4 47.1 81 5.4 41.7 -84.4 -3.323
00:23 1020 30.12 849 25.07 8.3 47 81 5.2 41.4 -84.4 -3.323
00:24 1020 30.12 849 25.07 8.3 46.9 82 5.3 41.6 -84.4 -3.323
00:25 1020 30.12 849 25.07 8.2 46.7 82 5.3 41.6 -84.5 -3.327
00:26 1020 30.12 849 25.07 8.1 46.6 82 5.3 41.5 -84.5 -3.327
00:27 1020 30.12 849 25.07 8 46.5 83 5.3 41.5 -84.5 -3.327
00:28 1020 30.12 849 25.07 8 46.4 83 5.3 41.5 -84.5 -3.327
00:29 1020 30.12 849 25.07 7.9 46.2 83 5.3 41.5 -84.5 -3.327
00:30 1020 30.12 849 25.07 7.9 46.3 83 5.2 41.4 -84.5 -3.327
00:31 1020 30.12 849 25.07 8 46.5 82 5.2 41.4 -84.5 -3.327
00:32 1020 30.12 849 25.07 8.1 46.5 82 5.2 41.4 -84.6 -3.331
00:33 1020 30.12 849 25.07 8.1 46.5 82 5.2 41.3 -84.6 -3.331
00:34 1020 30.12 849 25.07 8.1 46.5 81 5.1 41.1 -84.6 -3.331
00:35 1020 30.12 849 25.07 8.1 46.6 81 5.1 41.1 -84.7 -3.335
00:36 1020 30.12 849 25.07 8.1 46.5 81 5.1 41.1 -84.7 -3.335
00:37 1020 30.12 849 25.07 8 46.3 81 5 41 -84.7 -3.335
00:38 1020 30.12 849 25.07 7.9 46.2 81 4.9 40.9 -84.8 -3.339
00:39 1020 30.12 849 25.07 7.9 46.2 81 4.9 40.8 -84.8 -3.339
00:40 1020 30.12 849 25.07 7.9 46.1 82 4.9 40.9 -84.8 -3.339
00:41 1020 30.12 849 25.07 7.9 46.3 81 4.9 40.9 -84.9 -3.343
00:42 1020 30.12 849 25.07 8 46.4 81 4.9 40.9 -84.9 -3.343
00:43 1020 30.12 849 25.07 8.1 46.5 80 4.8 40.7 -84.9 -3.343
00:44 1020 30.12 849 25.07 8.2 46.7 80 4.9 40.9 -85 -3.346
00:45 1020 30.12 849 25.07 8.3 46.9 80 5 40.9 -85.1 -3.35
00:46 1020 30.12 849 25.07 8.2 46.8 80 5 40.9 -85.1 -3.35
00:47 1020 30.12 849 25.07 8.1 46.6 80 4.9 40.8 -85.1 -3.35
00:48 1020 30.12 849 25.07 8.2 46.7 80 4.9 40.8 -85.2 -3.354
00:49 1020 30.12 849 25.07 8.2 46.8 80 4.9 40.8 -85.2 -3.354
00:50 1020 30.12 849 25.07 8.3 46.9 79 4.9 40.9 -85.3 -3.358
00:51 1020 30.12 849 25.07 8.3 46.9 79 4.9 40.9 -85.3 -3.358
00:52 1020 30.12 849 25.07 8.3 46.9 79 4.9 40.8 -85.3 -3.358
00:53 1020 30.12 849 25.07 8.3 46.9 79 4.9 40.7 -85.4 -3.362
00:54 1020 30.12 849 25.07 8.3 46.9 79 4.8 40.7 -85.4 -3.362
00:55 1020 30.12 849 25.07 8.4 47.1 79 4.9 40.8 -85.5 -3.366
00:56 1020 30.12 849 25.07 8.4 47.2 79 5 41.1 -85.5 -3.366
00:57 1020 30.12 849 25.07 8.4 47 80 5.1 41.1 -85.5 -3.366
00:58 1020 30.12 849 25.07 8.4 47 80 5.1 41.2 -85.5 -3.366
00:59 1020 30.12 849 25.07 8.3 47 80 5.1 41.1 -85.6 -3.37
01:00 1020 30.12 849 25.07 8.4 47.1 80 5.1 41.2 -85.6 -3.37
01:01 1020 30.12 849 25.07 8.4 47.1 80 5.1 41.1 -85.6 -3.37
01:02 1020 30.12 849 25.07 8.4 47.1 80 5.1 41.2 -85.6 -3.37
01:03 1020 30.12 849 25.07 8.4 47.1 79 5 41.1 -85.6 -3.37
01:04 1020 30.12 849 25.07 8.4 47.1 79 5 41 -85.6 -3.37
01:05 1020 30.12 849 25.07 8.5 47.2 79 5 40.9 -85.6 -3.37
01:06 1020 30.12 849 25.07 8.5 47.2 79 5 40.9 -85.7 -3.374
01:07 1020 30.12 849 25.07 8.4 47.2 78 4.9 40.8 -85.7 -3.374
01:08 1020 30.12 849 25.07 8.5 47.2 78 4.8 40.6 -85.7 -3.374
01:09 1019 30.09 849 25.07 8.6 47.4 78 4.9 40.9 -85.8 -3.378
01:10 1019 30.09 849 25.07 8.5 47.4 78 4.9 40.8 -85.8 -3.378
01:11 1019 30.09 849 25.07 8.5 47.4 78 5 40.9 -85.9 -3.382
01:12 1019 30.09 849 25.07 8.4 47.1 79 4.9 40.9 -85.9 -3.382
01:13 1019 30.09 849 25.07 8.3 46.9 79 4.9 40.8 -85.9 -3.382
01:14 1019 30.09 849 25.07 8.2 46.8 79 4.8 40.7 -85.9 -3.382
01:15 1019 30.09 849 25.07 8.2 46.7 79 4.8 40.6 -85.9 -3.382
01:16 1019 30.09 849 25.07 8.1 46.6 79 4.7 40.5 -85.9 -3.382
01:17 1019 30.09 849 25.07 8.1 46.6 79 4.6 40.3 -86 -3.386
01:18 1019 30.09 849 25.07 8.2 46.7 78 4.6 40.2 -86 -3.386
01:19 1019 30.09 849 25.07 8.2 46.8 77 4.5 40 -86 -3.386
01:20 1019 30.09 849 25.07 8.3 47 77 4.5 40.1 -86.1 -3.39
01:21 1019 30.09 849 25.07 8.4 47.1 77 4.5 40.2 -86.1 -3.39
01:22 1019 30.09 849 25.07 8.4 47.2 76 4.5 40.1 -86.2 -3.394
01:23 1019 30.09 849 25.07 8.5 47.3 76 4.5 40.1 -86.2 -3.394
01:24 1019 30.09 849 25.07 8.6 47.5 75 4.5 40.1 -86.3 -3.398
01:25 1019 30.09 849 25.07 8.7 47.7 74 4.4 39.9 -86.3 -3.398
01:26 1019 30.09 849 25.07 8.9 48.1 73 4.4 40 -86.4 -3.402
01:27 1019 30.09 849 25.07 9.1 48.3 73 4.5 40.2 -86.5 -3.406
01:28 1019 30.09 849 25.07 9.2 48.5 73 4.6 40.2 -86.5 -3.406
01:29 1019 30.09 849 25.07 9.2 48.5 73 4.6 40.2 -86.6 -3.409
01:30 1019 30.09 849 25.07 9.2 48.5 73 4.6 40.3 -86.7 -3.413
01:31 1019 30.09 849 25.07 9.1 48.4 73 4.6 40.2 -86.7 -3.413
01:32 1019 30.09 849 25.07 9.1 48.4 73 4.6 40.3 -86.8 -3.417
01:33 1019 30.09 849 25.07 9 48.2 74 4.5 40.1 -86.8 -3.417
01:34 1019 30.09 849 25.07 8.6 47.5 75 4.5 40.1 -86.8 -3.417
01:35 1019 30.09 849 25.07 8.1 46.5 78 4.4 40 -86.8 -3.417
01:36 1019 30.09 849 25.07 7.7 45.8 80 4.4 39.9 -86.7 -3.413
01:37 1019 30.09 849 25.07 7.4 45.3 81 4.4 39.9 -86.7 -3.413
01:38 1019 30.09 849 25.07 7.2 45 82 4.4 39.9 -86.5 -3.406
01:39 1019 30.09 849 25.07 7.1 44.7 82 4.3 39.7 -86.4 -3.402
01:40 1019 30.09 849 25.07 7.1 44.7 83 4.3 39.7 -86.3 -3.398
01:41 1019 30.09 849 25.07 7 44.6 82 4.2 39.6 -86.2 -3.394
01:42 1019 30.09 849 25.07 7 44.5 83 4.2 39.6 -86.1 -3.39
01:43 1019 30.09 849 25.07 7 44.6 82 4.2 39.6 -86 -3.386
01:44 1019 30.09 849 25.07 7 44.7 82 4.2 39.6 -86 -3.386
01:45 1019 30.09 849 25.07 7 44.7 83 4.3 39.7 -85.9 -3.382
01:46 1019 30.09 849 25.07 7.1 44.7 82 4.3 39.7 -85.9 -3.382
01:47 1019 30.09 848 25.04 7.2 44.9 82 4.3 39.7 -85.8 -3.378
01:48 1019 30.09 849 25.07 7.3 45.2 81 4.3 39.7 -85.8 -3.378
01:49 1019 30.09 848 25.04 7.4 45.4 81 4.3 39.7 -85.8 -3.378
01:50 1019 30.09 848 25.04 7.5 45.5 80 4.3 39.8 -85.8 -3.378
01:51 1019 30.09 848 25.04 7.6 45.6 80 4.4 39.8 -85.9 -3.382
01:52 1019 30.09 849 25.07 7.6 45.6 80 4.3 39.8 -85.9 -3.382
01:53 1019 30.09 848 25.04 7.6 45.7 80 4.3 39.8 -85.9 -3.382
01:54 1019 30.09 848 25.04 7.6 45.7 80 4.4 39.9 -85.9 -3.382
01:55 1019 30.09 848 25.04 7.6 45.6 80 4.4 39.8 -85.9 -3.382
01:56 1019 30.09 848 25.04 7.5 45.5 80 4.2 39.6 -86 -3.386
01:57 1019 30.09 848 25.04 7.3 45.1 80 4.1 39.5 -86 -3.386
01:58 1019 30.09 848 25.04 7 44.6 82 4.2 39.5 -86 -3.386
01:59 1019 30.09 848 25.04 6.8 44.2 83 4.1 39.4 -86 -3.386
02:00 1019 30.09 848 25.04 6.6 43.9 84 4.1 39.3 -85.9 -3.382
02:01 1019 30.09 848 25.04 6.5 43.8 84 4 39.2 -85.9 -3.382
02:02 1019 30.09 848 25.04 6.4 43.6 84 4 39.2 -85.9 -3.382
02:03 1019 30.09 848 25.04 6.4 43.5 85 4 39.2 -85.8 -3.378
02:04 1019 30.09 848 25.04 6.4 43.6 84 4 39.2 -85.8 -3.378
02:05 1019 30.09 848 25.04 6.4 43.5 85 4 39.2 -85.8 -3.378
02:06 1019 30.09 848 25.04 6.4 43.4 85 4 39.1 -85.8 -3.378
02:07 1019 30.09 848 25.04 6.3 43.3 85 3.9 39.1 -85.7 -3.374
02:08 1019 30.09 848 25.04 6.3 43.3 85 3.9 39.1 -85.7 -3.374
02:09 1019 30.09 848 25.04 6.3 43.3 85 3.9 39 -85.7 -3.374
02:10 1019 30.09 848 25.04 6.2 43.1 86 3.9 39.1 -85.7 -3.374
02:11 1019 30.09 848 25.04 6.3 43.3 85 4 39.2 -85.7 -3.374
02:12 1019 30.09 848 25.04 6.5 43.7 84 4.1 39.3 -85.7 -3.374
02:13 1019 30.09 848 25.04 6.7 44 83 4 39.2 -85.7 -3.374
02:14 1019 30.09 848 25.04 6.8 44.2 82 4 39.2 -85.7 -3.374
02:15 1019 30.09 848 25.04 6.7 44.1 83 4 39.2 -85.7 -3.374
02:16 1019 30.09 848 25.04 6.7 44.1 83 4 39.3 -85.7 -3.374
02:17 1019 30.09 848 25.04 6.7 44 83 4 39.2 -85.7 -3.374
02:18 1019 30.09 848 25.04 6.7 44.1 83 4 39.2 -85.8 -3.378
02:19 1019 30.09 848 25.04 6.7 44.1 83 3.9 39.1 -85.8 -3.378
02:20 1019 30.09 848 25.04 6.7 44 83 4 39.1 -85.8 -3.378
02:21 1019 30.09 848 25.04 6.7 44.1 83 4 39.2 -85.8 -3.378
02:22 1019 30.09 848 25.04 6.8 44.2 82 3.9 39 -85.8 -3.378
02:23 1019 30.09 848 25.04 6.9 44.4 82 4 39.2 -85.9 -3.382
02:24 1019 30.09 848 25.04 7.1 44.7 81 4 39.2 -85.9 -3.382
02:25 1019 30.09 848 25.04 7.1 44.9 80 4 39.1 -85.9 -3.382
02:26 1019 30.09 849 25.07 7.1 44.8 80 3.9 39.1 -85.9 -3.382
02:27 1019 30.09 848 25.04 7.1 44.8 80 3.9 39.1 -86 -3.386
02:28 1019 30.09 849 25.07 7.2 44.9 80 4 39.2 -86 -3.386
02:29 1019 30.09 848 25.04 7.5 45.4 79 4 39.3 -86 -3.386
02:30 1019 30.09 849 25.07 7.7 45.9 78 4 39.3 -86.1 -3.39
02:31 1019 30.09 848 25.04 7.8 46.1 77 4 39.3 -86.1 -3.39
02:32 1019 30.09 848 25.04 8 46.4 76 4.1 39.3 -86.2 -3.394
02:33 1019 30.09 848 25.04 8.1 46.6 76 4.1 39.3 -86.2 -3.394
02:34 1019 30.09 848 25.04 8.1 46.6 76 4.1 39.4 -86.3 -3.398
02:35 1019 30.09 848 25.04 8.1 46.5 76 4.1 39.3 -86.3 -3.398
02:36 1019 30.09 848 25.04 7.9 46.2 76 4 39.2 -86.4 -3.402
02:37 1019 30.09 848 25.04 7.8 46 77 3.9 39.1 -86.4 -3.402
02:38 1019 30.09 848 25.04 7.7 45.8 77 3.9 39 -86.5 -3.406
02:39 1019 30.09 849 25.07 7.6 45.6 77 3.9 39 -86.5 -3.406
02:40 1019 30.09 849 25.07 7.5 45.5 78 4 39.2 -86.5 -3.406
02:41 1019 30.09 848 25.04 7.4 45.2 78 3.8 38.9 -86.5 -3.406
02:42 1019 30.09 848 25.04 7.3 45.1 79 3.8 38.8 -86.5 -3.406
02:43 1019 30.09 848 25.04 7.2 45 78 3.7 38.6 -86.5 -3.406
02:44 1019 30.09 848 25.04 7.1 44.8 79 3.7 38.7 -86.5 -3.406
02:45 1019 30.09 848 25.04 7.1 44.8 80 3.8 38.9 -86.6 -3.409
02:46 1019 30.09 848 25.04 7.2 44.9 79 3.8 38.9 -86.6 -3.409
02:47 1019 30.09 848 25.04 7.1 44.8 79 3.7 38.7 -86.5 -3.406
02:48 1019 30.09 848 25.04 7.1 44.8 79 3.8 38.8 -86.6 -3.409
02:49 1019 30.09 848 25.04 7.1 44.8 80 3.8 38.9 -86.6 -3.409
02:50 1019 30.09 848 25.04 7.1 44.7 80 3.9 39 -86.6 -3.409
02:51 1019 30.09 848 25.04 7.2 44.9 80 4 39.1 -86.6 -3.409
02:52 1019 30.09 848 25.04 7.3 45.1 79 3.9 39.1 -86.5 -3.406
02:53 1019 30.09 848 25.04 7.4 45.3 79 3.9 39 -86.6 -3.409
02:54 1019 30.09 848 25.04 7.4 45.3 78 3.9 39 -86.6 -3.409
02:55 1019 30.09 848 25.04 7.2 45 79 3.8 38.8 -86.6 -3.409
02:56 1019 30.09 848 25.04 7.3 45.1 78 3.7 38.6 -86.7 -3.413
02:57 1019 30.09 848 25.04 7.4 45.2 78 3.7 38.7 -86.7 -3.413
02:58 1019 30.09 848 25.04 7.4 45.2 78 3.7 38.7 -86.7 -3.413
02:59 1019 30.09 848 25.04 7.4 45.4 77 3.7 38.7 -86.8 -3.417
03:00 1019 30.09 848 25.04 7.6 45.7 76 3.7 38.6 -86.8 -3.417
03:01 1019 30.09 848 25.04 7.7 45.9 76 3.7 38.7 -86.9 -3.421
03:02 1019 30.09 848 25.04 7.8 46 75 3.7 38.7 -86.9 -3.421
03:03 1019 30.09 848 25.04 7.8 46.1 75 3.7 38.7 -87 -3.425
03:04 1019 30.09 848 25.04 7.8 46 76 3.8 38.8 -87 -3.425
03:05 1019 30.09 848 25.04 7.8 46 76 3.8 38.8 -87.1 -3.429
03:06 1019 30.09 848 25.04 7.8 46 76 3.8 38.8 -87.1 -3.429
03:07 1019 30.09 848 25.04 7.9 46.2 75 3.8 38.8 -87.1 -3.429
03:08 1019 30.09 848 25.04 8 46.3 75 3.8 38.9 -87.1 -3.429
03:09 1019 30.09 848 25.04 7.9 46.2 75 3.8 38.8 -87.1 -3.429
03:10 1019 30.09 848 25.04 7.8 46 75 3.7 38.7 -87.1 -3.429
03:11 1019 30.09 848 25.04 7.8 46 75 3.7 38.6 -87.2 -3.433
03:12 1019 30.09 848 25.04 7.7 45.9 76 3.7 38.7 -87.2 -3.433
03:13 1019 30.09 848 25.04 7.7 45.9 76 3.7 38.7 -87.2 -3.433
03:14 1019 30.09 848 25.04 7.8 46 76 3.7 38.7 -87.2 -3.433
03:15 1019 30.09 848 25.04 7.7 45.9 76 3.7 38.7 -87.2 -3.433
03:16 1019 30.09 848 25.04 7.8 46 76 3.8 38.8 -87.2 -3.433
03:17 1019 30.09 848 25.04 7.9 46.2 75 3.8 38.8 -87.2 -3.433
03:18 1019 30.09 848 25.04 7.9 46.3 76 3.9 39 -87.3 -3.437
03:19 1019 30.09 848 25.04 7.8 46.1 76 3.9 39 -87.3 -3.437
03:20 1019 30.09 848 25.04 7.7 45.8 77 3.9 39 -87.3 -3.437
03:21 1019 30.09 848 25.04 7.5 45.5 77 3.8 38.8 -87.3 -3.437
03:22 1019 30.09 848 25.04 7.4 45.2 77 3.7 38.6 -87.3 -3.437
03:23 1019 30.09 848 25.04 7.5 45.4 77 3.8 38.8 -87.3 -3.437
03:24 1019 30.09 848 25.04 7.5 45.4 77 3.8 38.8 -87.3 -3.437
03:25 1019 30.09 848 25.04 7.5 45.5 77 3.8 38.8 -87.3 -3.437
03:26 1019 30.09 848 25.04 7.5 45.5 77 3.8 38.9 -87.3 -3.437
03:27 1019 30.09 848 25.04 7.5 45.5 77 3.8 38.9 -87.3 -3.437
03:28 1019 30.09 848 25.04 7.6 45.6 77 3.9 38.9 -87.4 -3.441
03:29 1019 30.09 848 25.04 7.6 45.6 78 3.9 39.1 -87.4 -3.441
03:30 1019 30.09 848 25.04 7.5 45.5 78 3.9 39 -87.3 -3.437
03:31 1019 30.09 848 25.04 7.4 45.3 79 3.9 39.1 -87.3 -3.437
03:32 1019 30.09 848 25.04 7.3 45.1 79 4 39.2 -87.3 -3.437
03:33 1019 30.09 848 25.04 7.2 45 80 3.9 39.1 -87.3 -3.437
03:34 1019 30.09 848 25.04 7.2 44.9 80 4 39.2 -87.2 -3.433
03:35 1019 30.09 848 25.04 7.1 44.7 80 3.9 39.1 -87.2 -3.433
03:36 1019 30.09 848 25.04 7.1 44.7 80 3.9 39 -87.1 -3.429
03:37 1019 30.09 848 25.04 7.1 44.8 80 3.9 39 -87.1 -3.429
03:38 1019 30.09 848 25.04 7.2 44.9 79 3.8 38.9 -87.1 -3.429
03:39 1019 30.09 848 25.04 7.3 45.2 78 3.8 38.8 -87.1 -3.429
03:40 1019 30.09 848 25.04 7.5 45.4 78 3.8 38.9 -87.1 -3.429
03:41 1019 30.09 848 25.04 7.5 45.5 78 3.8 38.9 -87.2 -3.433
03:42 1019 30.09 848 25.04 7.5 45.5 77 3.8 38.8 -87.2 -3.433
03:43 1019 30.09 848 25.04 7.6 45.7 77 3.8 38.8 -87.2 -3.433
03:44 1019 30.09 848 25.04 7.7 45.9 77 3.9 39 -87.3 -3.437
03:45 1019 30.09 848 25.04 7.8 46 77 3.9 39 -87.3 -3.437
03:46 1019 30.09 848 25.04 7.7 45.9 76 3.8 38.9 -87.4 -3.441
03:47 1019 30.09 848 25.04 7.7 45.8 77 3.9 39.1 -87.4 -3.441
03:48 1019 30.09 848 25.04 7.6 45.6 78 3.9 39.1 -87.4 -3.441
03:49 1019 30.09 848 25.04 7.5 45.4 78 3.9 39 -87.4 -3.441
03:50 1019 30.09 848 25.04 7.4 45.2 79 3.9 39 -87.4 -3.441
03:51 1019 30.09 848 25.04 7.2 45 79 3.9 38.9 -87.4 -3.441
03:52 1019 30.09 848 25.04 7 44.6 80 3.8 38.9 -87.4 -3.441
03:53 1019 30.09 848 25.04 6.9 44.3 81 3.8 38.9 -87.3 -3.437
03:54 1019 30.09 848 25.04 6.7 44.1 82 3.8 38.8 -87.3 -3.437
03:55 1019 30.09 848 25.04 6.5 43.8 83 3.8 38.8 -87.2 -3.433
03:56 1019 30.09 848 25.04 6.4 43.5 83 3.8 38.8 -87.1 -3.429
03:57 1019 30.09 848 25.04 6.3 43.4 83 3.7 38.7 -87.1 -3.429
03:58 1019 30.09 848 25.04 6.3 43.3 83 3.7 38.6 -87 -3.425
03:59 1019 30.09 848 25.04 6.2 43.2 84 3.6 38.6 -87 -3.425
04:00 1019 30.09 848 25.04 6.1 43 84 3.6 38.5 -86.9 -3.421
04:01 1019 30.09 848 25.04 6.1 43.1 84 3.6 38.4 -86.9 -3.421
04:02 1019 30.09 848 25.04 6.3 43.3 83 3.5 38.4 -86.9 -3.421
04:03 1019 30.09 848 25.04 6.4 43.5 82 3.6 38.4 -86.9 -3.421
04:04 1019 30.09 848 25.04 6.5 43.6 82 3.6 38.4 -86.9 -3.421
04:05 1019 30.09 848 25.04 6.4 43.6 82 3.6 38.5 -86.9 -3.421
04:06 1019 30.09 848 25.04 6.4 43.5 82 3.6 38.5 -86.9 -3.421
04:07 1019 30.09 848 25.04 6.3 43.4 83 3.6 38.4 -86.9 -3.421
04:08 1019 30.09 848 25.04 6.3 43.3 83 3.6 38.4 -86.9 -3.421
04:09 1019 30.09 848 25.04 6.1 43 83 3.5 38.4 -86.9 -3.421
04:10 1019 30.09 848 25.04 6 42.9 84 3.5 38.3 -86.9 -3.421
04:11 1019 30.09 848 25.04 6 42.8 84 3.5 38.4 -86.9 -3.421
04:12 1019 30.09 848 25.04 6 42.8 84 3.6 38.5 -86.8 -3.417
04:13 1019 30.09 848 25.04 6.1 43 84 3.6 38.5 -86.8 -3.417
04:14 1019 30.09 848 25.04 6.2 43.1 83 3.6 38.4 -86.8 -3.417
04:15 1019 30.09 848 25.04 6.2 43.2 83 3.5 38.4 -86.8 -3.417
04:16 1019 30.09 848 25.04 6.2 43.2 83 3.5 38.3 -86.8 -3.417
04:17 1019 30.09 848 25.04 6.3 43.4 82 3.5 38.3 -86.8 -3.417
04:18 1019 30.09 848 25.04 6.4 43.5 81 3.4 38.2 -86.9 -3.421
04:19 1019 30.09 848 25.04 6.3 43.4 82 3.4 38.2 -86.9 -3.421
04:20 1019 30.09 848 25.04 6.2 43.2 82 3.4 38 -86.9 -3.421
04:21 1019 30.09 848 25.04 6.1 43 82 3.3 38 -86.9 -3.421
04:22 1019 30.09 848 25.04 6 42.7 84 3.4 38.2 -86.9 -3.421
04:23 1019 30.09 848 25.04 5.8 42.5 85 3.5 38.3 -86.9 -3.421
04:24 1019 30.09 848 25.04 5.8 42.5 85 3.5 38.2 -86.9 -3.421
04:25 1019 30.09 848 25.04 5.8 42.4 85 3.4 38.2 -86.8 -3.417
04:26 1019 30.09 848 25.04 5.8 42.4 84 3.3 38 -86.8 -3.417
04:27 1019 30.09 848 25.04 5.8 42.4 85 3.4 38.1 -86.8 -3.417
04:28 1019 30.09 848 25.04 5.7 42.3 85 3.4 38.1 -86.8 -3.417
04:29 1019 30.09 848 25.04 5.8 42.4 85 3.4 38.1 -86.8 -3.417
04:30 1019 30.09 848 25.04 5.9 42.6 84 3.4 38.1 -86.8 -3.417
04:31 1019 30.09 848 25.04 6 42.8 83 3.4 38.1 -86.8 -3.417
04:32 1019 30.09 848 25.04 6.2 43.1 82 3.4 38.1 -86.9 -3.421
04:33 1019 30.09 848 25.04 6.3 43.3 81 3.3 38 -86.9 -3.421
04:34 1019 30.09 848 25.04 6.2 43.2 82 3.4 38 -86.9 -3.421
04:35 1019 30.09 848 25.04 6.2 43.2 82 3.4 38.1 -86.9 -3.421
04:36 1019 30.09 848 25.04 6.3 43.4 82 3.4 38.2 -86.9 -3.421
04:37 1019 30.09 848 25.04 6.4 43.6 81 3.4 38.1 -86.9 -3.421
04:38 1019 30.09 848 25.04 6.5 43.7 81 3.4 38.2 -87 -3.425
04:39 1019 30.09 848 25.04 6.5 43.7 81 3.4 38.2 -87 -3.425
04:40 1019 30.09 848 25.04 6.4 43.6 81 3.4 38.2 -87 -3.425
04:41 1019 30.09 848 25.04 6.4 43.6 82 3.6 38.4 -87 -3.425
04:42 1019 30.09 848 25.04 6.7 44 80 3.5 38.3 -87 -3.425
04:43 1019 30.09 848 25.04 6.8 44.2 80 3.5 38.3 -87.1 -3.429
04:44 1019 30.09 848 25.04 6.9 44.4 79 3.5 38.3 -87.1 -3.429
04:45 1019 30.09 848 25.04 6.8 44.2 79 3.5 38.3 -87.1 -3.429
04:46 1019 30.09 848 25.04 6.7 44.1 80 3.5 38.2 -87.1 -3.429
04:47 1019 30.09 848 25.04 6.7 44 80 3.4 38.2 -87.1 -3.429
04:48 1019 30.09 848 25.04 6.6 43.8 81 3.5 38.3 -87.1 -3.429
04:49 1019 30.09 848 25.04 6.6 43.8 80 3.4 38.1 -87.1 -3.429
04:50 1019 30.09 848 25.04 6.5 43.8 80 3.4 38.1 -87.2 -3.433
04:51 1019 30.09 848 25.04 6.6 43.8 80 3.4 38 -87.2 -3.433
04:52 1019 30.09 848 25.04 6.7 44.1 79 3.4 38.1 -87.2 -3.433
04:53 1019 30.09 848 25.04 6.9 44.3 79 3.4 38.2 -87.3 -3.437
04:54 1019 30.09 848 25.04 6.9 44.4 79 3.4 38.2 -87.3 -3.437
04:55 1019 30.09 848 25.04 6.9 44.5 78 3.4 38.1 -87.3 -3.437
04:56 1019 30.09 848 25.04 6.9 44.5 78 3.4 38 -87.4 -3.441
04:57 1019 30.09 848 25.04 7 44.6 78 3.4 38.1 -87.4 -3.441
04:58 1019 30.09 848 25.04 7 44.6 78 3.4 38.1 -87.4 -3.441
04:59 1019 30.09 848 25.04 7 44.6 78 3.4 38.1 -87.5 -3.445
05:00 1019 30.09 848 25.04 7 44.7 78 3.4 38.1 -87.5 -3.445
05:01 1019 30.09 848 25.04 7 44.7 77 3.4 38.1 -87.6 -3.449
05:02 1019 30.09 848 25.04 7.1 44.7 77 3.3 38 -87.6 -3.449
05:03 1019 30.09 848 25.04 7.3 45.1 76 3.4 38.1 -87.6 -3.449
05:04 1019 30.09 848 25.04 7.4 45.2 76 3.4 38.1 -87.7 -3.453
05:05 1019 30.09 848 25.04 7 44.6 79 3.5 38.3 -87.7 -3.453
05:06 1019 30.09 848 25.04 6.5 43.7 81 3.5 38.3 -87.6 -3.449
05:07 1019 30.09 848 25.04 6.4 43.4 81 3.4 38.1 -87.6 -3.449
05:08 1019 30.09 848 25.04 6.3 43.3 81 3.3 38 -87.6 -3.449
05:09 1019 30.09 848 25.04 6.2 43.1 82 3.3 37.9 -87.6 -3.449
05:10 1019 30.09 848 25.04 6.1 42.9 82 3.3 37.9 -87.5 -3.445
05:11 1019 30.09 848 25.04 5.9 42.6 82 3.1 37.7 -87.5 -3.445
05:12 1019 30.09 848 25.04 5.7 42.3 84 3.2 37.7 -87.4 -3.441
05:13 1019 30.09 848 25.04 5.6 42.1 84 3.1 37.5 -87.4 -3.441
05:14 1019 30.09 848 25.04 5.5 41.9 84 3 37.4 -87.4 -3.441
05:15 1019 30.09 848 25.04 5.4 41.7 85 3.1 37.6 -87.4 -3.441
05:16 1019 30.09 848 25.04 5.3 41.6 85 2.9 37.3 -87.3 -3.437
05:17 1019 30.09 848 25.04 5.2 41.4 85 3 37.4 -87.3 -3.437
05:18 1019 30.09 848 25.04 5.2 41.3 85 2.9 37.2 -87.3 -3.437
05:19 1019 30.09 848 25.04 5 41 86 2.8 37.1 -87.2 -3.433
05:20 1019 30.09 848 25.04 4.8 40.7 86 2.7 36.8 -87.2 -3.433
05:21 1019 30.09 848 25.04 4.7 40.5 87 2.7 36.9 -87.2 -3.433
05:22 1019 30.09 848 25.04 4.6 40.3 88 2.8 37 -87.2 -3.433
05:23 1019 30.09 848 25.04 4.7 40.5 87 2.7 36.9 -87.2 -3.433
05:24 1019 30.09 848 25.04 5 40.9 86 2.8 37 -87.2 -3.433
05:25 1019 30.09 848 25.04 5.1 41.3 84 2.7 36.9 -87.2 -3.433
05:26 1019 30.09 848 25.04 5.5 41.8 84 2.9 37.2 -87.2 -3.433
05:27 1019 30.09 848 25.04 5.8 42.5 81 2.8 37.1 -87.2 -3.433
05:28 1019 30.09 848 25.04 6.2 43.2 79 2.9 37.1 -87.2 -3.433
05:29 1019 30.09 848 25.04 6.5 43.8 78 2.9 37.2 -87.3 -3.437
05:30 1019 30.09 848 25.04 6.6 43.8 78 3 37.4 -87.4 -3.441
05:31 1019 30.09 848 25.04 6.5 43.7 77 2.8 37 -87.4 -3.441
05:32 1019 30.09 848 25.04 6.2 43.2 79 2.8 37 -87.5 -3.445
05:33 1019 30.09 848 25.04 6.1 43 79 2.7 36.9 -87.5 -3.445
05:34 1019 30.09 848 25.04 5.8 42.5 80 2.7 36.9 -87.6 -3.449
05:35 1019 30.09 848 25.04 5.6 42.1 81 2.6 36.7 -87.6 -3.449
05:36 1019 30.09 848 25.04 5.4 41.7 83 2.8 37 -87.6 -3.449
05:37 1019 30.09 848 25.04 5.4 41.7 83 2.7 36.8 -87.5 -3.445
05:38 1019 30.09 848 25.04 5.3 41.6 83 2.7 36.8 -87.5 -3.445
05:39 1019 30.09 848 25.04 5.4 41.7 83 2.7 36.8 -87.5 -3.445
05:40 1019 30.09 848 25.04 5.3 41.6 83 2.6 36.7 -87.5 -3.445
05:41 1019 30.09 848 25.04 5.2 41.4 83 2.6 36.7 -87.5 -3.445
05:42 1019 30.09 848 25.04 5.2 41.4 83 2.6 36.7 -87.5 -3.445
05:43 1019 30.09 848 25.04 5.2 41.4 83 2.6 36.6 -87.5 -3.445
05:44 1019 30.09 848 25.04 5.2 41.3 83 2.5 36.5 -87.4 -3.441
05:45 1019 30.09 848 25.04 5.1 41.2 84 2.6 36.6 -87.4 -3.441
05:46 1019 30.09 848 25.04 4.9 40.9 84 2.5 36.5 -87.4 -3.441
05:47 1019 30.09 848 25.04 4.8 40.6 85 2.5 36.4 -87.4 -3.441
05:48 1019 30.09 848 25.04 4.6 40.4 86 2.5 36.6 -87.4 -3.441
05:49 1019 30.09 848 25.04 4.5 40.1 87 2.5 36.6 -87.4 -3.441
05:50 1019 30.09 848 25.04 4.4 40 87 2.5 36.6 -87.4 -3.441
05:51 1019 30.09 848 25.04 4.4 39.9 87 2.5 36.5 -87.4 -3.441
05:52 1019 30.09 848 25.04 4.3 39.8 88 2.5 36.5 -87.4 -3.441
05:53 1019 30.09 848 25.04 4.2 39.6 88 2.5 36.4 -87.3 -3.437
05:54 1019 30.09 848 25.04 4.1 39.4 89 2.4 36.4 -87.3 -3.437
05:55 1019 30.09 848 25.04 4 39.3 89 2.4 36.4 -87.3 -3.437
05:56 1019 30.09 848 25.04 4 39.1 90 2.4 36.4 -87.3 -3.437
05:57 1019 30.09 848 25.04 3.9 39.1 90 2.4 36.3 -87.3 -3.437
05:58 1019 30.09 848 25.04 3.9 39 90 2.4 36.2 -87.3 -3.437
05:59 1019 30.09 848 25.04 3.9 39 90 2.4 36.3 -87.3 -3.437
06:00 1019 30.09 848 25.04 3.9 39 91 2.5 36.5 -87.3 -3.437
06:01 1019 30.09 848 25.04 4 39.1 91 2.6 36.7 -87.2 -3.433
06:02 1019 30.09 848 25.04 4.1 39.4 91 2.7 36.9 -87.2 -3.433
06:03 1019 30.09 848 25.04 4.3 39.8 90 2.8 37.1 -87.2 -3.433
06:04 1019 30.09 848 25.04 4.4 40 89 2.8 37 -87.2 -3.433
06:05 1019 30.09 848 25.04 4.5 40.1 89 2.8 37.1 -87.2 -3.433
06:06 1019 30.09 848 25.04 4.7 40.4 89 2.9 37.3 -87.2 -3.433
06:07 1019 30.09 848 25.04 4.8 40.7 88 3 37.3 -87.2 -3.433
06:08 1019 30.09 848 25.04 4.9 40.9 87 2.9 37.3 -87.2 -3.433
06:09 1019 30.09 848 25.04 5.1 41.1 86 3 37.4 -87.2 -3.433
06:10 1019 30.09 848 25.04 5.2 41.3 86 2.9 37.3 -87.2 -3.433
06:11 1019 30.09 848 25.04 5.3 41.5 85 2.9 37.3 -87.3 -3.437
06:12 1019 30.09 848 25.04 5.3 41.5 85 2.9 37.2 -87.3 -3.437
06:13 1019 30.09 848 25.04 5.3 41.5 85 2.9 37.3 -87.3 -3.437
06:14 1019 30.09 848 25.04 5.2 41.3 85 2.9 37.3 -87.3 -3.437
06:15 1019 30.09 848 25.04 5.2 41.4 85 3 37.3 -87.4 -3.441
06:16 1019 30.09 848 25.04 5.3 41.5 85 3 37.4 -87.4 -3.441
06:17 1019 30.09 848 25.04 5.3 41.5 85 3 37.5 -87.4 -3.441
06:18 1019 30.09 848 25.04 5.4 41.7 85 3.1 37.6 -87.4 -3.441
06:19 1019 30.09 848 25.04 5.4 41.7 85 3.2 37.7 -87.4 -3.441
06:20 1019 30.09 848 25.04 5.5 41.9 85 3.2 37.8 -87.5 -3.445
06:21 1019 30.09 848 25.04 5.6 42 85 3.3 37.9 -87.5 -3.445
06:22 1019 30.09 848 25.04 5.6 42.1 85 3.3 38 -87.5 -3.445
06:23 1019 30.09 848 25.04 5.6 42.1 85 3.3 38 -87.5 -3.445
06:24 1019 30.09 848 25.04 5.7 42.2 85 3.3 38 -87.6 -3.449
06:25 1019 30.09 848 25.04 5.7 42.3 85 3.4 38.2 -87.6 -3.449
06:26 1019 30.09 848 25.04 5.8 42.4 85 3.4 38.2 -87.6 -3.449
06:27 1019 30.09 848 25.04 5.8 42.4 85 3.4 38.2 -87.6 -3.449
06:28 1019 30.09 848 25.04 5.9 42.5 85 3.5 38.2 -87.6 -3.449
06:29 1019 30.09 848 25.04 5.9 42.7 84 3.5 38.3 -87.7 -3.453
06:30 1019 30.09 848 25.04 6 42.8 84 3.6 38.4 -87.7 -3.453
06:31 1019 30.09 848 25.04 6 42.9 84 3.6 38.4 -87.7 -3.453
06:32 1019 30.09 848 25.04 6.1 43 84 3.6 38.6 -87.8 -3.457
06:33 1019 30.09 848 25.04 6.1 42.9 85 3.7 38.6 -87.8 -3.457
06:34 1019 30.09 848 25.04 6.1 43 85 3.7 38.7 -87.8 -3.457
06:35 1019 30.09 848 25.04 6.1 43.1 85 3.8 38.8 -87.8 -3.457
06:36 1019 30.09 848 25.04 6.2 43.2 84 3.7 38.7 -87.8 -3.457
06:37 1019 30.09 848 25.04 6.3 43.4 83 3.7 38.7 -87.8 -3.457
06:38 1019 30.09 848 25.04 6.4 43.5 83 3.7 38.7 -87.8 -3.457
06:39 1019 30.09 848 25.04 6.5 43.7 82 3.6 38.6 -87.9 -3.461
06:40 1019 30.09 848 25.04 6.6 43.9 82 3.7 38.7 -87.9 -3.461
06:41 1019 30.09 848 25.04 6.7 44 82 3.8 38.9 -87.9 -3.461
06:42 1019 30.09 848 25.04 6.8 44.2 82 3.8 38.9 -87.9 -3.461
06:43 1019 30.09 848 25.04 6.8 44.2 82 3.9 39 -88 -3.465
06:44 1019 30.09 848 25.04 6.8 44.3 82 4 39.1 -88 -3.465
06:45 1019 30.09 848 25.04 6.8 44.3 82 4 39.1 -88 -3.465
06:46 1019 30.09 848 25.04 6.9 44.3 82 4 39.2 -88 -3.465
06:47 1019 30.09 848 25.04 6.8 44.3 83 4.1 39.4 -88 -3.465
06:48 1019 30.09 848 25.04 6.8 44.3 83 4.2 39.5 -88 -3.465
06:49 1019 30.09 848 25.04 6.9 44.3 83 4.2 39.5 -88 -3.465
06:50 1019 30.09 848 25.04 6.9 44.4 83 4.2 39.5 -87.9 -3.461
06:51 1019 30.09 848 25.04 6.9 44.5 82 4.1 39.4 -87.9 -3.461
06:52 1019 30.09 848 25.04 7.1 44.7 82 4.2 39.6 -87.9 -3.461
06:53 1019 30.09 848 25.04 7.1 44.7 82 4.2 39.6 -88 -3.465
06:54 1019 30.09 848 25.04 7.2 45 81 4.2 39.6 -88 -3.465
06:55 1019 30.09 848 25.04 7.3 45.2 81 4.3 39.8 -88 -3.465
06:56 1019 30.09 848 25.04 7.4 45.3 81 4.3 39.7 -88 -3.465
06:57 1019 30.09 848 25.04 7.5 45.4 81 4.4 39.8 -88 -3.465
06:58 1019 30.09 848 25.04 7.5 45.6 81 4.6 40.2 -88.1 -3.469
06:59 1019 30.09 848 25.04 7.6 45.6 82 4.7 40.5 -88.1 -3.469
07:00 1019 30.09 848 25.04 7.6 45.6 81 4.5 40.2 -88.1 -3.469
07:01 1019 30.09 848 25.04 7.6 45.7 81 4.5 40.1 -88.1 -3.469
07:02 1019 30.09 848 25.04 7.7 45.9 81 4.6 40.3 -88.1 -3.469
07:03 1019 30.09 848 25.04 7.8 46 81 4.7 40.4 -88.2 -3.472
07:04 1019 30.09 848 25.04 7.9 46.1 80 4.7 40.4 -88.2 -3.472
07:05 1019 30.09 848 25.04 8 46.4 80 4.8 40.7 -88.3 -3.476
07:06 1019 30.09 848 25.04 8.2 46.7 80 5 41 -88.3 -3.476
07:07 1019 30.09 848 25.04 8.3 46.9 80 5.1 41.2 -88.4 -3.48
07:08 1019 30.09 848 25.04 8.4 47 79 4.9 40.8 -88.4 -3.48
07:09 1019 30.09 848 25.04 8.5 47.3 79 5.2 41.3 -88.5 -3.484
07:10 1019 30.09 848 25.04 8.6 47.5 79 5.2 41.3 -88.5 -3.484
07:11 1019 30.09 848 25.04 8.7 47.7 80 5.4 41.7 -88.6 -3.488
07:12 1019 30.09 848 25.04 8.8 47.8 79 5.3 41.6 -88.6 -3.488
07:13 1019 30.09 848 25.04 8.8 47.9 79 5.3 41.6 -88.6 -3.488
07:14 1019 30.09 848 25.04 9 48.1 78 5.4 41.8 -88.6 -3.488
07:15 1019 30.09 848 25.04 9.1 48.3 79 5.6 42 -88.7 -3.492
07:16 1019 30.09 848 25.04 9.2 48.5 81 6.1 42.9 -88.7 -3.492
07:17 1019 30.09 848 25.04 9.3 48.8 76 5.3 41.6 -88.7 -3.492
07:18 1019 30.09 848 25.04 9.5 49 76 5.5 41.9 -88.7 -3.492
07:19 1019 30.09 848 25.04 9.6 49.2 76 5.7 42.2 -88.8 -3.496
07:20 1019 30.09 848 25.04 9.7 49.4 75 5.4 41.8 -88.8 -3.496
07:21 1019 30.09 848 25.04 9.8 49.7 76 5.8 42.4 -88.8 -3.496
07:22 1019 30.09 848 25.04 9.9 49.8 74 5.6 42.1 -88.9 -3.5
07:23 1019 30.09 848 25.04 10 50 76 6 42.9 -88.9 -3.5
07:24 1019 30.09 848 25.04 10 50 76 6.1 42.9 -88.9 -3.5
07:25 1019 30.09 848 25.04 10 50 76 6 42.7 -89 -3.504
07:26 1019 30.09 848 25.04 10 50 77 6.1 43 -89 -3.504
07:27 1019 30.09 848 25.04 10 50 76 6 42.9 -89 -3.504
07:28 1019 30.09 848 25.04 10 50 78 6.3 43.3 -89 -3.504
07:29 1019 30.09 848 25.04 10.1 50.2 77 6.3 43.4 -89 -3.504
07:30 1019 30.09 848 25.04 10.2 50.4 77 6.4 43.4 -88.9 -3.5
07:31 1019 30.09 848 25.04 10.4 50.6 76 6.3 43.4 -88.9 -3.5
07:32 1019 30.09 848 25.04 10.5 50.9 77 6.7 44 -88.9 -3.5
07:33 1019 30.09 848 25.04 10.6 51 76 6.6 43.9 -88.9 -3.5
07:34 1019 30.09 848 25.04 10.5 50.9 75 6.4 43.5 -88.9 -3.5
07:35 1019 30.09 848 25.04 10.5 50.9 75 6.2 43.2 -88.9 -3.5
07:36 1019 30.09 848 25.04 10.5 50.9 75 6.3 43.4 -88.9 -3.5
07:37 1019 30.09 848 25.04 10.6 51.1 76 6.5 43.7 -88.9 -3.5
07:38 1019 30.09 848 25.04 10.7 51.2 76 6.6 43.9 -88.9 -3.5
07:39 1019 30.09 848 25.04 10.8 51.5 74 6.3 43.4 -88.9 -3.5
07:40 1019 30.09 848 25.04 10.9 51.7 74 6.6 43.9 -88.9 -3.5
07:41 1019 30.09 848 25.04 11.1 52 71 6.1 43 -88.9 -3.5
07:42 1019 30.09 848 25.04 11.2 52.1 72 6.3 43.3 -89 -3.504
07:43 1019 30.09 848 25.04 11.2 52.1 70 6 42.9 -89 -3.504
07:44 1019 30.09 848 25.04 11.2 52.2 69 5.9 42.5 -89 -3.504
07:45 1019 30.09 848 25.04 11.2 52.1 71 6.1 43.1 -89 -3.504
07:46 1019 30.09 848 25.04 11.2 52.1 72 6.5 43.6 -89 -3.504
07:47 1019 30.09 848 25.04 11.2 52.2 71 6.2 43.1 -89 -3.504
07:48 1019 30.09 848 25.04 11.3 52.3 70 6 42.8 -89 -3.504
07:49 1019 30.09 848 25.04 11.3 52.4 70 6.2 43.1 -89 -3.504
07:50 1019 30.09 848 25.04 11.4 52.4 72 6.4 43.6 -89 -3.504
07:51 1019 30.09 848 25.04 11.5 52.6 69 5.9 42.7 -89 -3.504
07:52 1019 30.09 848 25.04 11.5 52.7 69 6.1 43.1 -89 -3.504
07:53 1019 30.09 848 25.04 11.6 52.8 72 6.7 44.1 -89 -3.504
07:54 1019 30.09 848 25.04 11.7 53.1 71 6.7 44.1 -89 -3.504
07:55 1019 30.09 848 25.04 11.8 53.3 73 7.3 45.1 -89 -3.504
07:56 1019 30.09 848 25.04 11.9 53.5 68 6.3 43.4 -89 -3.504
07:57 1019 30.09 848 25.04 12 53.6 67 6.1 42.9 -89 -3.504
07:58 1019 30.09 848 25.04 12.1 53.8 68 6.4 43.5 -89 -3.504
07:59 1019 30.09 848 25.04 12.3 54.1 66 6.1 43 -89 -3.504
08:00 1019 30.09 848 25.04 12.3 54.1 66 6.1 43.1 -89 -3.504
08:01 1019 30.09 848 25.04 12.4 54.3 66 6.2 43.2 -88.9 -3.5
08:02 1019 30.09 848 25.04 12.5 54.5 68 6.7 44.1 -88.9 -3.5
08:03 1019 30.09 848 25.04 12.6 54.7 66 6.5 43.7 -88.9 -3.5
08:04 1019 30.09 848 25.04 12.7 54.9 66 6.6 43.9 -88.9 -3.5
08:05 1019 30.09 848 25.04 12.8 55.1 68 7.1 44.8 -88.9 -3.5
08:06 1019 30.09 848 25.04 13 55.4 68 7.4 45.2 -88.9 -3.5
08:07 1019 30.09 848 25.04 13 55.5 65 6.7 44 -88.9 -3.5
08:08 1019 30.09 848 25.04 13.1 55.7 65 6.7 44 -88.9 -3.5
08:09 1019 30.09 848 25.04 13.3 55.9 66 7.2 44.9 -88.9 -3.5
08:10 1019 30.09 848 25.04 13.2 55.8 64 6.5 43.7 -88.9 -3.5
08:11 1019 30.09 848 25.04 13.2 55.8 61 5.9 42.6 -88.9 -3.5
08:12 1019 30.09 848 25.04 13.5 56.3 63 6.7 44.1 -88.9 -3.5
08:13 1019 30.09 848 25.04 13.7 56.7 66 7.6 45.6 -88.9 -3.5
08:14 1019 30.09 848 25.04 13.8 56.8 63 6.9 44.4 -88.8 -3.496
08:15 1019 30.09 848 25.04 13.8 56.9 59 6.1 43 -88.8 -3.496
08:16 1019 30.09 848 25.04 13.8 56.9 63 7 44.6 -88.8 -3.496
08:17 1019 30.09 848 25.04 13.9 57.1 57 5.6 42.1 -88.8 -3.496
08:18 1019 30.09 848 25.04 13.9 57.1 65 7.6 45.6 -88.8 -3.496
08:19 1019 30.09 848 25.04 13.9 57.1 61 6.6 43.8 -88.8 -3.496
08:20 1019 30.09 848 25.04 14 57.2 57 5.7 42.2 -88.7 -3.492
08:21 1019 30.09 848 25.04 14.1 57.4 59 6.3 43.3 -88.7 -3.492
08:22 1019 30.09 848 25.04 14.2 57.6 60 6.7 44.1 -88.7 -3.492
08:23 1019 30.09 848 25.04 14.3 57.7 55 5.5 41.9 -88.7 -3.492
08:24 1019 30.09 848 25.04 14.2 57.6 61 6.8 44.3 -88.7 -3.492
08:25 1019 30.09 848 25.04 14.3 57.8 58 6.1 43.1 -88.7 -3.492
08:26 1019 30.09 848 25.04 14.4 57.8 61 7.1 44.7 -88.6 -3.488
08:27 1019 30.09 848 25.04 14.4 58 55 5.5 41.9 -88.6 -3.488
08:28 1019 30.09 848 25.04 14.5 58 58 6.5 43.7 -88.6 -3.488
08:29 1019 30.09 848 25.04 14.5 58.1 59 6.7 44.1 -88.6 -3.488
08:30 1019 30.09 848 25.04 14.5 58.1 57 6.1 43 -88.6 -3.488
08:31 1019 30.09 848 25.04 14.5 58.1 57 6.1 43 -88.6 -3.488
08:32 1019 30.09 848 25.04 14.6 58.2 54 5.4 41.7 -88.5 -3.484
08:33 1019 30.09 848 25.04 14.6 58.2 55 5.7 42.2 -88.5 -3.484
08:34 1019 30.09 848 25.04 14.6 58.3 57 6.3 43.4 -88.5 -3.484
08:35 1019 30.09 848 25.04 14.7 58.5 56 6.1 43 -88.5 -3.484
08:36 1019 30.09 848 25.04 14.9 58.7 55 6 42.8 -88.5 -3.484
08:37 1019 30.09 848 25.04 14.9 58.8 54 5.7 42.2 -88.5 -3.484
08:38 1019 30.09 848 25.04 15 58.9 53 5.7 42.2 -88.4 -3.48
08:39 1019 30.09 848 25.04 15.1 59.2 53 5.7 42.3 -88.4 -3.48
08:40 1019 30.09 848 25.04 15.3 59.5 53 5.9 42.6 -88.4 -3.48
08:41 1019 30.09 848 25.04 15.4 59.7 51 5.4 41.7 -88.4 -3.48
08:42 1019 30.09 848 25.04 15.5 59.9 50 5.2 41.3 -88.4 -3.48
08:43 1019 30.09 848 25.04 15.5 59.9 52 5.7 42.2 -88.3 -3.476
08:44 1019 30.09 848 25.04 15.5 59.8 55 6.5 43.7 -88.3 -3.476
08:45 1019 30.09 848 25.04 15.5 59.8 47 4.4 39.9 -88.3 -3.476
08:46 1019 30.09 848 25.04 15.4 59.8 54 6.3 43.4 -88.3 -3.476
08:47 1019 30.09 848 25.04 15.5 60 47 4.4 39.9 -88.3 -3.476
08:48 1019 30.09 848 25.04 15.5 59.9 47 4.4 40 -88.2 -3.472
08:49 1019 30.09 848 25.04 15.4 59.7 50 5.1 41.1 -88.2 -3.472
08:50 1019 30.09 848 25.04 15.4 59.8 47 4.3 39.8 -88.2 -3.472
08:51 1019 30.09 848 25.04 15.5 60 51 5.6 42.1 -88.1 -3.469
08:52 1019 30.09 848 25.04 15.7 60.2 47 4.5 40 -88.1 -3.469
08:53 1019 30.09 848 25.04 15.7 60.2 49 5.1 41.1 -88.1 -3.469
08:54 1019 30.09 848 25.04 15.7 60.3 47 4.6 40.3 -88.1 -3.469
08:55 1019 30.09 848 25.04 15.8 60.5 47 4.6 40.2 -88 -3.465
08:56 1019 30.09 848 25.04 15.8 60.5 43 3.4 38.2 -88 -3.465
08:57 1019 30.09 848 25.04 15.8 60.5 45 3.9 39 -88 -3.465
08:58 1019 30.09 848 25.04 15.9 60.7 48 4.9 40.8 -88 -3.465
08:59 1019 30.09 848 25.04 16.1 61 47 5 41 -87.9 -3.461
09:00 1019 30.09 848 25.04 16.1 61.1 42 3.4 38.1 -87.9 -3.461
09:01 1019 30.09 848 25.04 16.1 61 46 4.6 40.3 -87.9 -3.461
09:02 1019 30.09 848 25.04 16 60.8 48 5.2 41.4 -87.8 -3.457
09:03 1019 30.09 848 25.04 15.9 60.7 44 3.8 38.9 -87.8 -3.457
09:04 1019 30.09 848 25.04 15.9 60.5 45 3.9 39.1 -87.8 -3.457
09:05 1019 30.09 848 25.04 15.8 60.4 44 3.8 38.9 -87.8 -3.457
09:06 1019 30.09 848 25.04 15.8 60.4 46 4.4 39.9 -87.7 -3.453
09:07 1019 30.09 848 25.04 15.7 60.3 49 5.3 41.5 -87.7 -3.453
09:08 1019 30.09 848 25.04 15.8 60.4 45 3.8 38.9 -87.7 -3.453
09:09 1019 30.09 848 25.04 15.8 60.4 47 4.6 40.2 -87.6 -3.449
09:10 1019 30.09 848 25.04 15.8 60.4 49 5.3 41.6 -87.6 -3.449
09:11 1019 30.09 848 25.04 15.8 60.5 45 4.1 39.5 -87.6 -3.449
09:12 1019 30.09 848 25.04 15.8 60.5 44 3.6 38.5 -87.5 -3.445
09:13 1019 30.09 848 25.04 15.8 60.4 48 5 40.9 -87.5 -3.445
09:14 1019 30.09 848 25.04 15.9 60.5 47 4.8 40.7 -87.5 -3.445
09:15 1019 30.09 848 25.04 15.9 60.6 52 6 42.9 -87.4 -3.441
09:16 1019 30.09 848 25.04 15.9 60.6 46 4.5 40.1 -87.4 -3.441
09:17 1019 30.09 848 25.04 15.9 60.6 51 6 42.8 -87.4 -3.441
09:18 1019 30.09 848 25.04 15.9 60.7 47 4.6 40.3 -87.3 -3.437
09:19 1019 30.09 848 25.04 16 60.7 46 4.6 40.2 -87.3 -3.437
09:20 1019 30.09 848 25.04 16 60.7 48 4.9 40.9 -87.3 -3.437
09:21 1019 30.09 848 25.04 16 60.8 46 4.4 40 -87.2 -3.433
09:22 1019 30.09 848 25.04 16.1 60.9 47 5 40.9 -87.2 -3.433
09:23 1019 30.09 848 25.04 16.1 60.9 48 5.2 41.4 -87.2 -3.433
09:24 1019 30.09 848 25.04 16 60.8 50 5.6 42.1 -87.1 -3.429
09:25 1019 30.09 848 25.04 16 60.8 50 5.7 42.3 -87.1 -3.429
09:26 1019 30.09 848 25.04 16 60.9 47 4.8 40.6 -87 -3.425
09:27 1019 30.09 848 25.04 16.1 60.9 49 5.5 41.8 -87 -3.425
09:28 1019 30.09 848 25.04 16.1 61 44 3.9 39 -87 -3.425
09:29 1019 30.09 848 25.04 15.9 60.7 47 4.6 40.3 -87 -3.425
09:30 1019 30.09 848 25.04 16 60.7 47 4.8 40.7 -86.9 -3.421
09:31 1019 30.09 848 25.04 16 60.8 48 4.9 40.9 -86.9 -3.421
09:32 1019 30.09 848 25.04 16 60.8 43 3.5 38.4 -86.8 -3.417
09:33 1019 30.09 848 25.04 16 60.7 46 4.5 40 -86.8 -3.417
09:34 1019 30.09 848 25.04 16 60.8 42 3.1 37.5 -86.8 -3.417
09:35 1019 30.09 848 25.04 16 60.7 41 2.9 37.1 -86.8 -3.417
09:36 1019 30.09 848 25.04 16 60.8 46 4.4 40 -86.8 -3.417
09:37 1019 30.09 848 25.04 16.1 60.9 42 3.1 37.6 -86.7 -3.413
09:38 1019 30.09 848 25.04 16.2 61.2 43 3.6 38.5 -86.7 -3.413
09:39 1019 30.09 848 25.04 16.3 61.4 44 4.2 39.6 -86.6 -3.409
09:40 1019 30.09 848 25.04 16.5 61.6 46 4.9 40.9 -86.6 -3.409
09:41 1019 30.09 848 25.04 16.6 61.8 50 6.2 43.2 -86.6 -3.409
09:42 1019 30.09 848 25.04 16.6 61.9 44 4.4 39.9 -86.5 -3.406
09:43 1019 30.09 848 25.04 16.7 62 46 5.2 41.4 -86.5 -3.406
09:44 1019 30.09 848 25.04 16.8 62.2 53 7.3 45.2 -86.4 -3.402
09:45 1019 30.09 848 25.04 16.8 62.2 47 5.4 41.7 -86.4 -3.402
09:46 1019 30.09 848 25.04 16.8 62.2 42 3.9 39 -86.4 -3.402
09:47 1018 30.06 848 25.04 16.9 62.4 42 4.1 39.5 -86.3 -3.398
09:48 1018 30.06 848 25.04 16.8 62.3 43 4.2 39.6 -86.3 -3.398
09:49 1018 30.06 848 25.04 16.8 62.2 43 4.2 39.5 -86.3 -3.398
09:50 1018 30.06 848 25.04 16.7 62.1 40 3.3 37.9 -86.2 -3.394
09:51 1018 30.06 848 25.04 16.6 62 42 3.7 38.6 -86.2 -3.394
09:52 1018 30.06 848 25.04 16.6 61.9 44 4.3 39.8 -86.1 -3.39
09:53 1018 30.06 848 25.04 16.6 61.9 44 4.3 39.7 -86.1 -3.39
09:54 1019 30.09 848 25.04 16.5 61.7 45 4.5 40.2 -86.1 -3.39
09:55 1019 30.09 848 25.04 16.5 61.6 42 3.6 38.5 -86.1 -3.39
09:56 1019 30.09 848 25.04 16.4 61.5 42 3.7 38.6 -86 -3.386
09:57 1018 30.06 848 25.04 16.4 61.5 44 4.3 39.8 -86 -3.386
09:58 1018 30.06 848 25.04 16.5 61.7 42 3.6 38.5 -86 -3.386
09:59 1018 30.06 848 25.04 16.7 62.1 42 3.9 39.1 -85.9 -3.382
10:00 1018 30.06 848 25.04 16.8 62.3 42 4 39.2 -85.9 -3.382
10:01 1018 30.06 848 25.04 16.9 62.4 46 5.4 41.8 -85.8 -3.378
10:02 1018 30.06 848 25.04 16.8 62.3 46 5.1 41.2 -85.8 -3.378
10:03 1018 30.06 848 25.04 16.8 62.2 48 5.7 42.2 -85.8 -3.378
10:04 1018 30.06 848 25.04 16.8 62.2 47 5.5 42 -85.7 -3.374
10:05 1018 30.06 848 25.04 16.8 62.2 44 4.6 40.3 -85.7 -3.374
10:06 1018 30.06 848 25.04 16.7 62 44 4.6 40.3 -85.7 -3.374
10:07 1018 30.06 848 25.04 16.6 62 50 6.2 43.2 -85.6 -3.37
10:08 1018 30.06 848 25.04 16.8 62.2 46 5.2 41.3 -85.6 -3.37
10:09 1018 30.06 848 25.04 16.9 62.5 43 4.3 39.7 -85.5 -3.366
10:10 1018 30.06 848 25.04 17 62.7 41 3.7 38.7 -85.5 -3.366
10:11 1018 30.06 848 25.04 17 62.7 44 4.8 40.6 -85.5 -3.366
10:12 1018 30.06 848 25.04 17.1 62.8 42 4.3 39.8 -85.4 -3.362
10:13 1018 30.06 847 25.01 17.1 62.8 44 5 40.9 -85.4 -3.362
10:14 1018 30.06 848 25.04 17 62.6 41 3.7 38.6 -85.3 -3.358
10:15 1018 30.06 847 25.01 16.9 62.4 43 4.5 40 -85.3 -3.358
10:16 1018 30.06 847 25.01 16.8 62.3 44 4.5 40.1 -85.3 -3.358
10:17 1018 30.06 847 25.01 16.9 62.3 47 5.7 42.2 -85.2 -3.354
10:18 1018 30.06 847 25.01 16.9 62.5 42 4 39.2 -85.2 -3.354
10:19 1018 30.06 847 25.01 17 62.6 45 5.1 41.2 -85.2 -3.354
10:20 1018 30.06 847 25.01 17 62.6 42 4.2 39.5 -85.1 -3.35
10:21 1018 30.06 847 25.01 17 62.6 49 6.3 43.3 -85.1 -3.35
10:22 1018 30.06 847 25.01 16.9 62.5 42 3.9 39 -85 -3.346
10:23 1018 30.06 847 25.01 17 62.6 42 4 39.1 -85 -3.346
10:24 1018 30.06 847 25.01 16.9 62.5 43 4.5 40 -85 -3.346
10:25 1018 30.06 847 25.01 17 62.5 41 3.6 38.6 -84.9 -3.343
10:26 1018 30.06 847 25.01 17 62.6 47 5.7 42.2 -84.9 -3.343
10:27 1018 30.06 847 25.01 17.2 62.9 46 5.5 42 -84.8 -3.339
10:28 1018 30.06 847 25.01 17.2 63 43 4.7 40.5 -84.8 -3.339
10:29 1018 30.06 847 25.01 17.2 62.9 49 6.3 43.4 -84.7 -3.335
10:30 1018 30.06 847 25.01 17.2 63 42 4.3 39.7 -84.7 -3.335
10:31 1018 30.06 847 25.01 17.3 63.1 44 5 40.9 -84.7 -3.335
10:32 1018 30.06 847 25.01 17.3 63.1 44 5 41 -84.7 -3.335
10:33 1018 30.06 847 25.01 17.4 63.3 43 4.9 40.8 -84.7 -3.335
10:34 1018 30.06 847 25.01 17.4 63.4 41 4.3 39.7 -84.6 -3.331
10:35 1018 30.06 847 25.01 17.5 63.4 52 7.5 45.5 -84.5 -3.327
10:36 1018 30.06 847 25.01 17.5 63.6 46 6 42.8 -84.5 -3.327
10:37 1018 30.06 847 25.01 17.8 64 49 7.2 44.9 -84.4 -3.323
10:38 1018 30.06 847 25.01 18 64.3 48 7 44.7 -84.3 -3.319
10:39 1018 30.06 847 25.01 18.1 64.6 45 6 42.9 -84.3 -3.319
10:40 1018 30.06 847 25.01 18 64.3 41 4.6 40.3 -84.3 -3.319
10:41 1018 30.06 847 25.01 17.8 64 45 5.8 42.5 -84.2 -3.315
10:42 1018 30.06 847 25.01 17.9 64.1 49 7 44.5 -84.2 -3.315
10:43 1018 30.06 847 25.01 18 64.5 48 6.9 44.4 -84.1 -3.311
10:44 1018 30.06 847 25.01 18.1 64.5 43 5.3 41.5 -84.1 -3.311
10:45 1018 30.06 847 25.01 18 64.3 47 6.7 44 -84.1 -3.311
10:46 1018 30.06 847 25.01 17.9 64.2 43 5.2 41.4 -84 -3.307
10:47 1018 30.06 847 25.01 18 64.4 54 8.7 47.7 -83.9 -3.303
10:48 1018 30.06 847 25.01 18.1 64.6 45 6.2 43.2 -83.9 -3.303
10:49 1018 30.06 847 25.01 18.1 64.7 40 4.4 39.9 -83.9 -3.303
10:50 1018 30.06 847 25.01 18 64.4 39 4 39.1 -83.8 -3.299
10:51 1018 30.06 847 25.01 17.9 64.2 41 4.4 40 -83.8 -3.299
10:52 1018 30.06 847 25.01 17.8 64 41 4.5 40 -83.7 -3.295
10:53 1018 30.06 847 25.01 17.8 64.1 43 5 41.1 -83.7 -3.295
10:54 1018 30.06 847 25.01 17.9 64.2 38 3.6 38.4 -83.7 -3.295
10:55 1018 30.06 847 25.01 18 64.3 46 6.3 43.3 -83.6 -3.291
10:56 1018 30.06 847 25.01 18.1 64.5 38 3.5 38.3 -83.5 -3.287
10:57 1018 30.06 847 25.01 18 64.5 47 6.7 44.1 -83.5 -3.287
10:58 1018 30.06 847 25.01 18.1 64.6 40 4.4 39.9 -83.5 -3.287
10:59 1018 30.06 847 25.01 18.2 64.7 35 2.5 36.5 -83.4 -3.283
11:00 1018 30.06 847 25.01 18.1 64.6 39 4.1 39.3 -83.4 -3.283
11:01 1018 30.06 847 25.01 18.1 64.6 42 5.1 41.3 -83.3 -3.28
11:02 1018 30.06 847 25.01 18.3 64.9 41 4.9 40.9 -83.3 -3.28
11:03 1018 30.06 847 25.01 18.3 64.9 38 3.7 38.6 -83.2 -3.276
11:04 1018 30.06 847 25.01 18.3 64.9 41 4.9 40.9 -83.2 -3.276
11:05 1018 30.06 847 25.01 18.3 64.9 43 5.6 42.2 -83.1 -3.272
11:06 1018 30.06 847 25.01 18.4 65.1 36 3.3 37.9 -83.1 -3.272
11:07 1018 30.06 847 25.01 18.3 65 48 7.1 44.9 -83 -3.268
11:08 1018 30.06 847 25.01 18.4 65.2 44 6.2 43.2 -83 -3.268
11:09 1018 30.06 847 25.01 18.6 65.4 38 4 39.1 -82.9 -3.264
11:10 1018 30.06 847 25.01 18.5 65.3 38 4.1 39.4 -82.9 -3.264
11:11 1018 30.06 847 25.01 18.5 65.3 47 7 44.6 -82.8 -3.26
11:12 1018 30.06 847 25.01 18.7 65.7 35 2.9 37.2 -82.8 -3.26
11:13 1018 30.06 847 25.01 18.7 65.6 41 5.2 41.3 -82.8 -3.26
11:14 1018 30.06 847 25.01 18.6 65.4 42 5.5 41.8 -82.7 -3.256
11:15 1018 30.06 847 25.01 18.7 65.6 39 4.7 40.5 -82.7 -3.256
11:16 1018 30.06 847 25.01 18.6 65.5 37 3.9 39.1 -82.6 -3.252
11:17 1018 30.06 847 25.01 18.8 65.8 32 2 35.5 -82.5 -3.248
11:18 1018 30.06 847 25.01 18.8 65.8 31 1.5 34.7 -82.5 -3.248
11:19 1018 30.06 847 25.01 18.7 65.6 33 2.1 35.8 -82.5 -3.248
11:20 1018 30.06 847 25.01 18.6 65.4 33 1.9 35.5 -82.4 -3.244
11:21 1018 30.06 847 25.01 18.6 65.5 42 5.4 41.8 -82.4 -3.244
11:22 1018 30.06 847 25.01 18.7 65.6 32 1.9 35.4 -82.3 -3.24
11:23 1018 30.06 847 25.01 18.7 65.6 38 4.3 39.7 -82.3 -3.24
11:24 1018 30.06 847 25.01 18.7 65.7 33 2.3 36.1 -82.2 -3.236
11:25 1018 30.06 847 25.01 18.9 65.9 36 3.8 38.8 -82.2 -3.236
11:26 1018 30.06 847 25.01 18.9 66.1 34 3 37.5 -82.1 -3.232
11:27 1018 30.06 847 25.01 18.9 66 33 2.6 36.7 -82.1 -3.232
11:28 1018 30.06 847 25.01 18.8 65.9 40 5.1 41.3 -82 -3.228
11:29 1018 30.06 847 25.01 18.9 65.9 38 4.3 39.7 -82 -3.228
11:30 1018 30.06 847 25.01 18.8 65.8 38 4.5 40 -81.9 -3.224
11:31 1018 30.06 847 25.01 18.7 65.7 37 3.7 38.7 -81.9 -3.224
11:32 1018 30.06 847 25.01 18.7 65.7 33 2.4 36.4 -81.8 -3.22
11:33 1018 30.06 847 25.01 18.8 65.9 32 1.9 35.4 -81.8 -3.22
11:34 1018 30.06 847 25.01 18.9 66.1 39 4.8 40.6 -81.7 -3.217
11:35 1017 30.03 847 25.01 18.9 66.1 33 2.5 36.4 -81.7 -3.217
11:36 1018 30.06 847 25.01 19.1 66.3 32 2 35.6 -81.6 -3.213
11:37 1017 30.03 847 25.01 19.2 66.5 35 3.3 38 -81.6 -3.213
11:38 1017 30.03 847 25.01 19.2 66.6 33 2.8 37 -81.5 -3.209
11:39 1017 30.03 847 25.01 19.2 66.5 31 1.8 35.3 -81.5 -3.209
11:40 1017 30.03 847 25.01 19.2 66.5 36 4 39.2 -81.4 -3.205
11:41 1017 30.03 847 25.01 19.2 66.6 34 3.3 38 -81.3 -3.201
11:42 1017 30.03 847 25.01 19.2 66.5 36 3.7 38.7 -81.3 -3.201
11:43 1017 30.03 847 25.01 19.2 66.6 35 3.6 38.4 -81.2 -3.197
11:44 1017 30.03 847 25.01 19.3 66.7 36 4 39.3 -81.2 -3.197
11:45 1017 30.03 847 25.01 19.3 66.8 35 3.7 38.7 -81.1 -3.193
11:46 1017 30.03 847 25.01 19.2 66.6 33 2.8 37.1 -81.1 -3.193
11:47 1017 30.03 847 25.01 19.1 66.5 43 6.2 43.2 -81.1 -3.193
11:48 1017 30.03 847 25.01 19.2 66.6 36 4 39.2 -81 -3.189
11:49 1017 30.03 847 25.01 19.3 66.8 35 3.6 38.4 -80.9 -3.185
11:50 1017 30.03 847 25.01 19.3 66.7 38 4.7 40.4 -80.9 -3.185
11:51 1017 30.03 847 25.01 19.2 66.6 33 2.9 37.2 -80.9 -3.185
11:52 1017 30.03 847 25.01 19.3 66.7 38 4.6 40.4 -80.8 -3.181
11:53 1017 30.03 847 25.01 19.3 66.7 39 5.3 41.5 -80.8 -3.181
11:54 1017 30.03 847 25.01 19.3 66.8 40 5.4 41.8 -80.7 -3.177
11:55 1017 30.03 846 24.98 19.4 66.8 41 6.1 42.9 -80.7 -3.177
11:56 1017 30.03 847 25.01 19.4 67 36 4.2 39.6 -80.6 -3.173
11:57 1017 30.03 847 25.01 19.6 67.2 39 5.6 42 -80.6 -3.173
11:58 1017 30.03 846 24.98 19.7 67.5 38 5.3 41.5 -80.5 -3.169
11:59 1017 30.03 846 24.98 19.7 67.5 36 4.5 40.1 -80.4 -3.165
12:00 1017 30.03 847 25.01 19.7 67.5 37 4.6 40.3 -80.4 -3.165
12:01 1017 30.03 847 25.01 19.7 67.5 31 2.5 36.5 -80.3 -3.161
12:02 1017 30.03 846 24.98 19.7 67.4 30 1.9 35.4 -80.3 -3.161
12:03 1017 30.03 846 24.98 19.6 67.3 31 2.1 35.8 -80.3 -3.161
12:04 1017 30.03 846 24.98 19.6 67.2 32 2.6 36.7 -80.2 -3.157
12:05 1017 30.03 846 24.98 19.5 67.1 33 2.9 37.2 -80.2 -3.157
12:06 1017 30.03 846 24.98 19.5 67.2 33 2.9 37.2 -80.1 -3.154
12:07 1017 30.03 846 24.98 19.7 67.4 35 4 39.2 -80.1 -3.154
12:08 1017 30.03 846 24.98 19.8 67.7 33 3.2 37.7 -80 -3.15
12:09 1017 30.03 846 24.98 19.9 67.8 37 5 40.9 -80 -3.15
12:10 1017 30.03 846 24.98 19.9 67.8 34 3.8 38.9 -79.9 -3.146
12:11 1017 30.03 846 24.98 19.8 67.7 33 3.3 37.9 -79.9 -3.146
12:12 1017 30.03 846 24.98 19.7 67.4 31 2.3 36.2 -79.9 -3.146
12:13 1017 30.03 846 24.98 19.6 67.4 33 2.9 37.3 -79.8 -3.142
12:14 1017 30.03 846 24.98 19.7 67.5 39 5.4 41.8 -79.8 -3.142
12:15 1017 30.03 846 24.98 19.9 67.9 35 4.4 39.9 -79.7 -3.138
12:16 1017 30.03 846 24.98 19.9 67.9 37 4.8 40.6 -79.7 -3.138
12:17 1017 30.03 846 24.98 20 67.9 36 4.5 40.1 -79.6 -3.134
12:18 1017 30.03 846 24.98 19.9 67.9 31 2.5 36.4 -79.6 -3.134
12:19 1017 30.03 846 24.98 20 67.9 33 3.3 38 -79.5 -3.13
12:20 1017 30.03 846 24.98 20 68.1 38 5.4 41.6 -79.5 -3.13
12:21 1017 30.03 846 24.98 20.1 68.2 33 3.5 38.2 -79.5 -3.13
12:22 1017 30.03 846 24.98 20.2 68.4 32 3.1 37.5 -79.4 -3.126
12:23 1017 30.03 846 24.98 20.3 68.5 36 4.7 40.5 -79.4 -3.126
12:24 1017 30.03 846 24.98 20.5 68.9 35 4.6 40.3 -79.3 -3.122
12:25 1017 30.03 846 24.98 20.6 69.2 34 4.2 39.6 -79.2 -3.118
12:26 1017 30.03 846 24.98 20.6 69.1 33 3.9 39 -79.2 -3.118
12:27 1017 30.03 846 24.98 20.6 69 34 4.4 39.9 -79.2 -3.118
12:28 1017 30.03 846 24.98 20.5 68.9 32 3.5 38.2 -79.1 -3.114
12:29 1017 30.03 846 24.98 20.3 68.5 34 4.3 39.7 -79.1 -3.114
12:30 1017 30.03 846 24.98 20.1 68.3 38 5.5 42 -79.1 -3.114
12:31 1017 30.03 846 24.98 20.2 68.3 31 2.9 37.1 -79 -3.11
12:32 1017 30.03 846 24.98 20.2 68.4 35 4.6 40.3 -79 -3.11
12:33 1017 30.03 846 24.98 20.3 68.5 33 3.5 38.3 -79 -3.11
12:34 1017 30.03 846 24.98 20.4 68.8 37 5.3 41.5 -78.9 -3.106
12:35 1017 30.03 846 24.98 20.5 68.9 37 5.3 41.6 -78.8 -3.102
12:36 1017 30.03 846 24.98 20.4 68.8 33 3.9 39.1 -78.8 -3.102
12:37 1017 30.03 846 24.98 20.3 68.6 36 5 41.1 -78.8 -3.102
12:38 1017 30.03 846 24.98 20.4 68.6 33 3.9 39 -78.8 -3.102
12:39 1017 30.03 846 24.98 20.3 68.6 36 4.8 40.7 -78.7 -3.098
12:40 1017 30.03 846 24.98 20.3 68.5 32 3.1 37.7 -78.7 -3.098
12:41 1017 30.03 846 24.98 20.2 68.4 31 2.9 37.2 -78.6 -3.094
12:42 1017 30.03 846 24.98 20.4 68.7 33 4 39.1 -78.6 -3.094
12:43 1017 30.03 846 24.98 20.5 69 33 3.9 38.9 -78.5 -3.091
12:44 1017 30.03 846 24.98 20.6 69.1 32 3.7 38.7 -78.5 -3.091
12:45 1017 30.03 846 24.98 20.6 69.1 31 3 37.3 -78.5 -3.091
12:46 1017 30.03 846 24.98 20.6 69.1 33 3.9 39 -78.4 -3.087
12:47 1017 30.03 846 24.98 20.6 69 33 3.9 38.9 -78.4 -3.087
12:48 1017 30.03 846 24.98 20.7 69.2 37 5.4 41.8 -78.4 -3.087
12:49 1017 30.03 846 24.98 20.9 69.6 31 3.3 37.9 -78.3 -3.083
12:50 1017 30.03 846 24.98 20.9 69.7 31 3.3 37.9 -78.3 -3.083
12:51 1017 30.03 846 24.98 21 69.7 28 2 35.5 -78.3 -3.083
12:52 1017 30.03 846 24.98 21 69.7 31 3.1 37.7 -78.2 -3.079
12:53 1017 30.03 846 24.98 20.9 69.7 34 4.7 40.5 -78.2 -3.079
12:54 1017 30.03 846 24.98 21 69.9 31 3.5 38.2 -78.2 -3.079
12:55 1017 30.03 846 24.98 21.3 70.3 36 5.7 42.3 -78.1 -3.075
12:56 1017 30.03 846 24.98 21.5 70.7 30 3.4 38.2 -78.1 -3.075
12:57 1017 30.03 846 24.98 21.6 70.9 31 4 39.3 -78 -3.071
12:58 1017 30.03 846 24.98 21.7 71 32 4.3 39.8 -78 -3.071
12:59 1017 30.03 846 24.98 21.7 71.1 30 3.5 38.3 -78 -3.071
13:00 1017 30.03 846 24.98 21.7 71.1 30 3.4 38.2 -78 -3.071
13:01 1017 30.03 846 24.98 21.6 70.8 32 4.4 39.9 -77.9 -3.067
13:02 1017 30.03 846 24.98 21.7 71 34 5.5 41.8 -77.9 -3.067
13:03 1017 30.03 846 24.98 21.9 71.3 28 2.9 37.2 -77.9 -3.067
13:04 1017 30.03 846 24.98 21.8 71.2 29 3 37.3 -77.8 -3.063
13:05 1017 30.03 846 24.98 21.7 71.1 32 4.6 40.3 -77.8 -3.063
13:06 1017 30.03 846 24.98 21.8 71.2 31 4 39.2 -77.7 -3.059
13:07 1017 30.03 846 24.98 21.7 71.1 28 2.8 37 -77.7 -3.059
13:08 1017 30.03 846 24.98 21.7 71.1 33 4.8 40.6 -77.7 -3.059
13:09 1017 30.03 846 24.98 21.8 71.3 38 7.1 44.8 -77.6 -3.055
13:10 1017 30.03 846 24.98 22 71.5 32 4.5 40.2 -77.6 -3.055
13:11 1017 30.03 846 24.98 21.9 71.5 31 4.4 40 -77.5 -3.051
13:12 1017 30.03 846 24.98 22 71.5 30 3.7 38.6 -77.5 -3.051
13:13 1017 30.03 846 24.98 22.1 71.7 31 4.4 40 -77.5 -3.051
13:14 1017 30.03 846 24.98 22.1 71.7 32 5 41 -77.4 -3.047
13:15 1017 30.03 846 24.98 22.1 71.7 29 3.2 37.7 -77.4 -3.047
13:16 1017 30.03 846 24.98 22 71.5 32 4.9 40.9 -77.4 -3.047
13:17 1017 30.03 846 24.98 21.9 71.5 30 3.6 38.4 -77.4 -3.047
13:18 1017 30.03 846 24.98 22 71.7 31 4.1 39.4 -77.4 -3.047
13:19 1017 30.03 846 24.98 22 71.6 34 5.6 42 -77.3 -3.043
13:20 1017 30.03 846 24.98 21.9 71.4 31 4.4 39.9 -77.2 -3.039
13:21 1017 30.03 846 24.98 21.9 71.4 31 4.3 39.7 -77.1 -3.035
13:22 1017 30.03 846 24.98 21.8 71.2 32 4.6 40.2 -77.1 -3.035
13:23 1017 30.03 846 24.98 21.8 71.2 31 4 39.2 -77.1 -3.035
13:24 1017 30.03 846 24.98 21.8 71.2 32 4.3 39.8 -77 -3.031
13:25 1017 30.03 846 24.98 21.8 71.2 29 3.4 38.1 -77 -3.031
13:26 1017 30.03 846 24.98 21.9 71.4 29 3.5 38.2 -77 -3.031
13:27 1017 30.03 846 24.98 22 71.5 32 4.9 40.8 -76.9 -3.028
13:28 1017 30.03 846 24.98 22 71.6 35 6.1 42.9 -76.9 -3.028
13:29 1017 30.03 846 24.98 22 71.6 31 4.2 39.5 -76.8 -3.024
13:30 1017 30.03 846 24.98 21.8 71.3 31 4.2 39.6 -76.8 -3.024
13:31 1017 30.03 846 24.98 21.5 70.8 30 3.5 38.3 -76.8 -3.024
13:32 1017 30.03 846 24.98 21.3 70.4 32 4.3 39.7 -76.8 -3.024
13:33 1017 30.03 846 24.98 21.2 70.1 32 3.9 39.1 -76.8 -3.024
13:34 1017 30.03 846 24.98 21 69.7 30 3 37.5 -76.8 -3.024
13:35 1017 30.03 846 24.98 20.9 69.5 31 3.4 38.2 -76.7 -3.02
13:36 1017 30.03 846 24.98 20.8 69.5 30 2.8 37 -76.7 -3.02
13:37 1017 30.03 846 24.98 20.7 69.3 31 3.1 37.6 -76.7 -3.02
13:38 1017 30.03 846 24.98 20.7 69.2 33 4.1 39.4 -76.7 -3.02
13:39 1017 30.03 846 24.98 20.7 69.2 32 3.7 38.7 -76.7 -3.02
13:40 1017 30.03 846 24.98 20.6 69.2 32 3.3 38 -76.7 -3.02
13:41 1016 30 846 24.98 20.6 69.1 36 5.1 41.2 -76.7 -3.02
13:42 1016 30 846 24.98 20.6 69 35 4.7 40.4 -76.8 -3.024
13:43 1016 30 846 24.98 20.5 68.8 38 5.8 42.4 -76.8 -3.024
13:44 1016 30 846 24.98 20.4 68.8 33 3.7 38.7 -76.8 -3.024
13:45 1016 30 846 24.98 20.5 68.8 36 5 40.9 -76.9 -3.028
13:46 1016 30 846 24.98 20.5 68.9 35 4.8 40.6 -76.9 -3.028
13:47 1016 30 846 24.98 20.5 68.9 39 6.4 43.5 -76.9 -3.028
13:48 1016 30 846 24.98 20.5 69 32 3.6 38.5 -77 -3.031
13:49 1016 30 846 24.98 20.6 69.1 32 3.5 38.4 -77 -3.031
13:50 1016 30 846 24.98 20.7 69.2 30 2.6 36.6 -77.1 -3.035
13:51 1016 30 846 24.98 20.7 69.3 32 3.4 38.2 -77.1 -3.035
13:52 1016 30 846 24.98 20.9 69.6 33 4.2 39.6 -77.2 -3.039
13:53 1016 30 846 24.98 21 69.8 36 5.4 41.7 -77.2 -3.039
13:54 1016 30 846 24.98 21 69.9 35 5.3 41.5 -77.2 -3.039
13:55 1016 30 846 24.98 21.1 70.1 30 3.1 37.5 -77.3 -3.043
13:56 1016 30 846 24.98 21.2 70.2 32 4.1 39.4 -77.4 -3.047
13:57 1016 30 846 24.98 21.3 70.3 28 2.1 35.7 -77.4 -3.047
13:58 1016 30 846 24.98 21.3 70.3 31 3.6 38.5 -77.5 -3.051
13:59 1016 30 846 24.98 21.3 70.3 36 5.9 42.6 -77.5 -3.051
14:00 1016 30 846 24.98 21.4 70.5 35 5.6 42 -77.5 -3.051
14:01 1016 30 846 24.98 21.5 70.8 27 1.7 35.1 -77.6 -3.055
14:02 1016 30 846 24.98 21.7 71 26 1.7 35.1 -77.6 -3.055
14:03 1016 30 845 24.95 21.9 71.5 35 6.1 43 -77.7 -3.059
14:04 1016 30 845 24.95 22.3 72.1 37 7.2 44.9 -77.7 -3.059
14:05 1016 30 845 24.95 22.6 72.7 31 4.8 40.6 -77.7 -3.059
14:06 1016 30 845 24.95 22.8 73.1 30 4.5 40.2 -77.7 -3.059
14:07 1016 30 845 24.95 22.9 73.2 25 2.3 36.1 -77.8 -3.063
14:08 1016 30 845 24.95 22.8 73 26 2.5 36.5 -77.8 -3.063
14:09 1016 30 845 24.95 22.5 72.5 29 3.7 38.6 -77.8 -3.063
14:10 1016 30 845 24.95 22.2 72 29 3.5 38.2 -77.8 -3.063
14:11 1016 30 845 24.95 22.1 71.8 26 1.8 35.2 -77.8 -3.063
14:12 1016 30 845 24.95 22.1 71.8 33 5.5 41.9 -77.8 -3.063
14:13 1016 30 845 24.95 22.3 72.2 29 3.6 38.4 -77.7 -3.059
14:14 1016 30 845 24.95 22.6 72.6 31 4.6 40.2 -77.7 -3.059
14:15 1016 30 845 24.95 22.7 72.9 30 4.5 40.1 -77.7 -3.059
14:16 1016 30 845 24.95 22.9 73.2 28 3.6 38.5 -77.7 -3.059
14:17 1016 30 845 24.95 23.1 73.5 31 5.2 41.4 -77.7 -3.059
14:18 1016 30 845 24.95 23.3 74 34 6.6 44 -77.6 -3.055
14:19 1016 30 845 24.95 23.7 74.7 29 5.1 41.1 -77.6 -3.055
14:20 1016 30 845 24.95 23.8 74.9 30 5.5 41.8 -77.5 -3.051
14:21 1016 30 845 24.95 23.7 74.6 26 3.4 38.1 -77.5 -3.051
14:22 1016 30 845 24.95 23.6 74.4 30 5.2 41.4 -77.5 -3.051
14:23 1016 30 845 24.95 23.5 74.3 24 2 35.7 -77.4 -3.047
14:24 1016 30 845 24.95 23.4 74.2 25 2.7 36.9 -77.4 -3.047
14:25 1016 30 845 24.95 23.4 74.1 26 3 37.4 -77.3 -3.043
14:26 1016 30 845 24.95 23.4 74 27 3.5 38.2 -77.2 -3.039
14:27 1016 30 845 24.95 23.3 74 29 4.4 39.8 -77.2 -3.039
14:28 1016 30 845 24.95 23.3 74 27 3.3 37.9 -77.1 -3.035
14:29 1016 30 845 24.95 23.4 74.2 28 4.1 39.4 -77 -3.031
14:30 1016 30 845 24.95 23.5 74.4 24 2.3 36.1 -76.9 -3.028
14:31 1016 30 845 24.95 23.5 74.3 28 4 39.3 -76.9 -3.028
14:32 1016 30 845 24.95 23.5 74.3 27 3.9 39 -76.8 -3.024
14:33 1016 30 845 24.95 23.4 74.2 28 4.1 39.4 -76.7 -3.02
14:34 1016 30 845 24.95 23.4 74.1 31 5.5 41.8 -76.7 -3.02
14:35 1016 30 845 24.95 23.4 74.2 28 4.3 39.8 -76.6 -3.016
14:36 1016 30 845 24.95 23.5 74.2 23 1.5 34.7 -76.5 -3.012
14:37 1016 30 845 24.95 23.4 74.2 30 5 41 -76.4 -3.008
14:38 1016 30 845 24.95 23.6 74.4 25 2.5 36.4 -76.3 -3.004
14:39 1016 30 845 24.95 23.8 74.8 28 4.3 39.7 -76.2 -3
14:40 1016 30 845 24.95 23.9 75.1 25 2.9 37.2 -76.2 -3
14:41 1016 30 845 24.95 23.8 74.9 26 3.1 37.6 -76.1 -2.996
14:42 1016 30 845 24.95 23.8 74.9 26 3.5 38.3 -76 -2.992
14:43 1016 30 845 24.95 23.8 74.9 27 4 39.1 -75.9 -2.988
14:44 1016 30 845 24.95 23.9 75.1 27 3.9 38.9 -75.8 -2.984
14:45 1016 30 845 24.95 24 75.3 29 5.1 41.1 -75.7 -2.98
14:46 1016 30 845 24.95 24.1 75.4 26 3.4 38.2 -75.7 -2.98
14:47 1016 30 845 24.95 24 75.1 29 4.9 40.9 -75.6 -2.976
14:48 1016 30 845 24.95 23.9 74.9 31 5.8 42.4 -75.4 -2.969
14:49 1016 30 845 24.95 24 75.3 26 3.4 38.1 -75.4 -2.969
14:50 1016 30 845 24.95 24 75.2 29 5.3 41.5 -75.3 -2.965
14:51 1016 30 845 24.95 24.1 75.4 26 3.7 38.7 -75.2 -2.961
14:52 1016 30 845 24.95 24.1 75.4 27 4.1 39.4 -75.1 -2.957
14:53 1016 30 845 24.95 23.9 75.1 26 3.5 38.3 -75 -2.953
14:54 1016 30 845 24.95 23.9 75 27 3.9 39 -74.9 -2.949
14:55 1016 30 845 24.95 23.9 75 29 5.1 41.1 -74.8 -2.945
14:56 1016 30 845 24.95 23.9 75 28 4.7 40.4 -74.7 -2.941
14:57 1016 30 845 24.95 24 75.2 29 5.2 41.4 -74.6 -2.937
14:58 1016 30 845 24.95 24 75.2 28 4.8 40.7 -74.5 -2.933
14:59 1016 30 845 24.95 24 75.2 28 4.4 40 -74.4 -2.929
15:00 1016 30 845 24.95 23.9 75.1 26 3.3 37.9 -74.3 -2.925
15:01 1016 30 845 24.95 23.9 75.1 28 4.4 39.9 -74.2 -2.921
15:02 1016 30 845 24.95 24.1 75.3 28 4.7 40.4 -74.1 -2.917
15:03 1016 30 845 24.95 24 75.3 27 4.3 39.7 -74 -2.913
15:04 1016 30 845 24.95 24.1 75.3 29 5.2 41.3 -73.9 -2.909
15:05 1016 30 845 24.95 24.2 75.5 28 4.7 40.4 -73.8 -2.906
15:06 1016 30 845 24.95 24.4 75.9 25 3.3 37.9 -73.7 -2.902
15:07 1016 30 845 24.95 24.5 76.1 29 5.3 41.6 -73.6 -2.898
15:08 1016 30 845 24.95 24.7 76.5 27 4.9 40.9 -73.7 -2.902
15:09 1016 30 845 24.95 24.8 76.6 25 3.8 38.8 -73.5 -2.894
15:10 1016 30 845 24.95 24.6 76.3 27 4.9 40.8 -73.3 -2.886
15:11 1016 30 845 24.95 24.6 76.3 27 4.5 40.1 -73.2 -2.882
15:12 1016 30 845 24.95 24.8 76.6 23 2.3 36.2 -73.1 -2.878
15:13 1016 30 845 24.95 24.8 76.7 25 3.5 38.3 -73 -2.874
15:14 1016 30 845 24.95 24.9 76.9 23 2.6 36.7 -72.9 -2.87
15:15 1016 30 845 24.95 24.8 76.7 26 4.5 40.2 -72.8 -2.866
15:16 1016 30 845 24.95 24.8 76.7 24 2.9 37.2 -72.7 -2.862
15:17 1016 30 845 24.95 24.8 76.6 26 4.2 39.6 -72.6 -2.858
15:18 1016 30 845 24.95 24.8 76.7 23 2.8 37 -72.5 -2.854
15:19 1016 30 845 24.95 24.8 76.6 23 2.4 36.4 -72.4 -2.85
15:20 1016 30 845 24.95 24.6 76.4 22 2 35.7 -72.3 -2.846
15:21 1016 30 845 24.95 24.6 76.3 25 3.4 38.1 -72.2 -2.843
15:22 1016 30 845 24.95 24.7 76.5 29 5.6 42.1 -72.1 -2.839
15:23 1016 30 845 24.95 24.8 76.7 21 1 33.8 -72 -2.835
15:24 1016 30 845 24.95 24.7 76.5 22 1.7 35.1 -71.9 -2.831
15:25 1016 30 845 24.95 24.7 76.5 21 1.4 34.5 -71.8 -2.827
15:26 1016 30 845 24.95 24.7 76.5 24 2.9 37.2 -71.7 -2.823
15:27 1015 29.97 845 24.95 24.9 76.8 26 4.3 39.7 -71.5 -2.815
15:28 1016 30 845 24.95 25.1 77.1 27 5.2 41.4 -71.5 -2.815
15:29 1016 30 845 24.95 25.1 77.2 26 4.4 39.9 -71.4 -2.811
15:30 1015 29.97 845 24.95 25.2 77.3 27 5 41 -71.2 -2.803
15:31 1016 30 845 24.95 25.4 77.7 23 3 37.3 -71.1 -2.799
15:32 1015 29.97 845 24.95 25.3 77.5 27 5.3 41.5 -71.1 -2.799
15:33 1015 29.97 845 24.95 25.2 77.3 24 3.4 38.1 -71.1 -2.799
15:34 1015 29.97 845 24.95 25.1 77.1 23 3 37.4 -70.9 -2.791
15:35 1015 29.97 845 24.95 25 76.9 25 3.9 39 -70.8 -2.787
15:36 1015 29.97 845 24.95 25 76.9 24 3.1 37.5 -70.8 -2.787
15:37 1015 29.97 845 24.95 25 76.9 21 1.6 34.9 -70.5 -2.776
15:38 1015 29.97 845 24.95 24.9 76.9 24 3.4 38.1 -70.4 -2.772
15:39 1015 29.97 845 24.95 24.9 76.7 23 2.4 36.2 -70.3 -2.768
15:40 1015 29.97 845 24.95 24.8 76.6 27 4.6 40.2 -70.2 -2.764
15:41 1015 29.97 845 24.95 24.8 76.6 22 2.1 35.7 -70.1 -2.76
15:42 1015 29.97 845 24.95 24.8 76.7 26 4 39.3 -70 -2.756
15:43 1015 29.97 845 24.95 24.9 76.9 23 2.4 36.3 -69.94 -2.754
15:44 1015 29.97 845 24.95 24.9 76.8 21 1.5 34.7 -69.86 -2.75
15:45 1015 29.97 845 24.95 24.9 76.9 24 3.2 37.8 -69.74 -2.746
15:46 1015 29.97 844 24.92 25.1 77.1 24 3.6 38.4 -69.65 -2.742
15:47 1015 29.97 845 24.95 25.2 77.4 24 3.5 38.2 -69.53 -2.737
15:48 1015 29.97 845 24.95 25.3 77.5 29 6.2 43.1 -69.44 -2.734
15:49 1015 29.97 845 24.95 25.4 77.7 26 4.8 40.7 -69.35 -2.73
15:50 1015 29.97 845 24.95 25.5 77.8 25 4.4 39.9 -69.25 -2.726
15:51 1015 29.97 845 24.95 25.6 78 21 1.8 35.2 -69.14 -2.722
15:52 1015 29.97 845 24.95 25.4 77.6 24 3.5 38.3 -69.06 -2.719
15:53 1015 29.97 845 24.95 25.1 77.2 25 4.1 39.4 -68.95 -2.715
15:54 1015 29.97 845 24.95 25.1 77.2 22 1.9 35.5 -68.83 -2.71
15:55 1015 29.97 845 24.95 25.1 77.1 24 3.1 37.7 -68.74 -2.706
15:56 1015 29.97 845 24.95 25.1 77.2 24 3.6 38.4 -68.75 -2.707
15:57 1015 29.97 845 24.95 25.1 77.1 22 2.2 36 -68.57 -2.7
15:58 1015 29.97 845 24.95 24.9 76.9 24 3.3 37.9 -68.43 -2.694
15:59 1015 29.97 845 24.95 25 76.9 25 3.6 38.5 -68.31 -2.689
16:00 1015 29.97 845 24.95 25 77 24 3.2 37.8 -68.22 -2.686
16:01 1015 29.97 845 24.95 24.9 76.8 23 2.8 37.1 -68.14 -2.683
16:02 1015 29.97 845 24.95 24.8 76.7 24 3.4 38.1 -68.04 -2.679
16:03 1015 29.97 845 24.95 24.9 76.7 30 6.2 43.1 -67.94 -2.675
16:04 1015 29.97 845 24.95 25 77.1 25 4 39.2 -67.85 -2.671
16:05 1015 29.97 845 24.95 25 77 26 4.2 39.6 -67.78 -2.669
16:06 1015 29.97 844 24.92 24.9 76.9 25 3.6 38.5 -67.77 -2.668
16:07 1015 29.97 845 24.95 24.8 76.7 24 3.4 38.1 -67.67 -2.664
16:08 1015 29.97 844 24.92 24.8 76.6 24 3 37.4 -67.54 -2.659
16:09 1015 29.97 844 24.92 24.8 76.6 24 2.9 37.2 -67.5 -2.657
16:10 1015 29.97 844 24.92 24.8 76.6 24 2.8 37 -67.43 -2.655
16:11 1015 29.97 844 24.92 24.8 76.6 24 3.3 37.9 -67.37 -2.652
16:12 1015 29.97 844 24.92 24.7 76.4 26 4.2 39.5 -67.29 -2.649
16:13 1015 29.97 844 24.92 24.7 76.5 23 2.2 36 -67.21 -2.646
16:14 1015 29.97 844 24.92 24.7 76.4 24 3.1 37.6 -67.13 -2.643
16:15 1015 29.97 844 24.92 24.8 76.6 26 4.4 39.9 -67.07 -2.641
16:16 1015 29.97 844 24.92 24.8 76.7 25 3.8 38.9 -66.98 -2.637
16:17 1015 29.97 844 24.92 24.8 76.6 25 3.9 39 -66.93 -2.635
16:18 1015 29.97 844 24.92 24.9 76.9 25 3.8 38.9 -66.88 -2.633
16:19 1015 29.97 844 24.92 25 77 23 2.6 36.6 -66.82 -2.631
16:20 1015 29.97 844 24.92 25 77 21 1.1 33.9 -66.77 -2.629
16:21 1015 29.97 844 24.92 24.8 76.6 24 3.3 37.9 -66.71 -2.626
16:22 1015 29.97 844 24.92 24.8 76.6 26 4.4 39.9 -66.63 -2.623
16:23 1015 29.97 844 24.92 24.9 76.9 25 4 39.2 -66.57 -2.621
16:24 1015 29.97 844 24.92 25 76.9 24 3.4 38.2 -66.54 -2.62
16:25 1015 29.97 844 24.92 24.9 76.9 22 1.9 35.5 -66.47 -2.617
16:26 1015 29.97 844 24.92 24.8 76.6 24 2.9 37.2 -66.41 -2.615
16:27 1015 29.97 844 24.92 24.8 76.6 22 2.2 35.9 -66.37 -2.613
16:28 1015 29.97 844 24.92 24.8 76.6 26 4.1 39.4 -66.32 -2.611
16:29 1015 29.97 844 24.92 24.9 76.8 25 3.5 38.3 -66.25 -2.608
16:30 1015 29.97 844 24.92 25 77.1 27 5 41 -66.21 -2.607
16:31 1015 29.97 844 24.92 25.1 77.2 23 2.7 36.9 -66.18 -2.606
16:32 1015 29.97 844 24.92 25 77 25 3.9 39 -66.13 -2.604
16:33 1015 29.97 844 24.92 25 77 24 3.6 38.4 -66.08 -2.602
16:34 1015 29.97 844 24.92 25 76.9 26 4.5 40.1 -66.03 -2.6
16:35 1015 29.97 844 24.92 24.9 76.9 23 2.6 36.8 -65.96 -2.597
16:36 1015 29.97 844 24.92 24.9 76.8 21 1.5 34.7 -65.93 -2.596
16:37 1015 29.97 844 24.92 24.7 76.5 24 3.2 37.7 -65.89 -2.594
16:38 1015 29.97 844 24.92 24.6 76.3 24 2.8 37 -65.83 -2.592
16:39 1015 29.97 844 24.92 24.5 76.1 27 4.4 39.9 -65.82 -2.591
16:40 1015 29.97 844 24.92 24.4 75.9 27 4.2 39.6 -65.76 -2.589
16:41 1015 29.97 844 24.92 24.2 75.5 24 2.3 36.1 -65.75 -2.589
16:42 1015 29.97 844 24.92 24 75.2 24 2.5 36.6 -65.74 -2.588
16:43 1015 29.97 844 24.92 23.9 75 22 1.3 34.3 -65.71 -2.587
16:44 1015 29.97 844 24.92 23.8 74.9 29 4.8 40.6 -65.69 -2.586
16:45 1015 29.97 844 24.92 23.8 74.8 27 3.9 39 -65.66 -2.585
16:46 1015 29.97 844 24.92 23.9 74.9 23 1.9 35.4 -65.66 -2.585
16:47 1015 29.97 844 24.92 23.9 74.9 23 1.7 35 -65.67 -2.585
16:48 1015 29.97 844 24.92 23.8 74.9 27 4.1 39.4 -65.67 -2.585
16:49 1015 29.97 844 24.92 23.8 74.9 28 4.2 39.6 -65.7 -2.587
16:50 1015 29.97 844 24.92 23.8 74.8 27 4 39.2 -65.73 -2.588
16:51 1015 29.97 844 24.92 23.7 74.6 29 4.8 40.7 -65.8 -2.591
16:52 1015 29.97 844 24.92 23.7 74.6 26 3.4 38.1 -65.91 -2.595
16:53 1015 29.97 844 24.92 23.6 74.6 25 2.8 37 -66.09 -2.602
16:54 1015 29.97 844 24.92 23.6 74.5 24 2 35.5 -66.42 -2.615
16:55 1015 29.97 844 24.92 23.6 74.4 25 2.9 37.1 -66.98 -2.637
16:56 1015 29.97 844 24.92 23.5 74.4 26 3.2 37.8 -67.46 -2.656
16:57 1015 29.97 844 24.92 23.5 74.2 27 3.5 38.3 -67.81 -2.67
16:58 1015 29.97 844 24.92 23.4 74.2 27 3.4 38.1 -68.16 -2.683
16:59 1015 29.97 844 24.92 23.4 74.2 27 3.6 38.4 -68.53 -2.698
17:00 1015 29.97 844 24.92 23.5 74.2 25 2.8 37 -68.87 -2.711
17:01 1015 29.97 844 24.92 23.5 74.2 25 2.7 36.8 -69.21 -2.725
17:02 1015 29.97 844 24.92 23.5 74.3 27 3.4 38.1 -69.55 -2.738
17:03 1015 29.97 844 24.92 23.4 74.2 26 3.3 38 -69.82 -2.749
17:04 1015 29.97 844 24.92 23.5 74.2 26 3.2 37.8 -70.1 -2.76
17:05 1015 29.97 844 24.92 23.5 74.3 26 3.3 37.9 -70.3 -2.768
17:06 1015 29.97 844 24.92 23.6 74.4 25 2.4 36.3 -70.5 -2.776
17:07 1015 29.97 844 24.92 23.6 74.5 25 2.9 37.2 -70.8 -2.787
17:08 1015 29.97 844 24.92 23.6 74.6 23 1.6 34.9 -71 -2.795
17:09 1015 29.97 844 24.92 23.7 74.6 28 4.3 39.8 -71.2 -2.803
17:10 1015 29.97 844 24.92 23.7 74.6 27 3.6 38.5 -71.3 -2.807
17:11 1015 29.97 844 24.92 23.6 74.5 27 3.5 38.3 -71.5 -2.815
17:12 1015 29.97 844 24.92 23.6 74.4 29 4.8 40.7 -71.6 -2.819
17:13 1015 29.97 844 24.92 23.4 74.1 25 2.3 36.1 -71.8 -2.827
17:14 1015 29.97 844 24.92 23.4 74 26 2.8 37.1 -71.9 -2.831
17:15 1015 29.97 844 24.92 23.4 74.1 26 2.8 37 -72.1 -2.839
17:16 1015 29.97 844 24.92 23.4 74.1 26 2.9 37.2 -72.2 -2.843
17:17 1015 29.97 844 24.92 23.3 74 24 1.7 35.1 -72.2 -2.843
17:18 1015 29.97 844 24.92 23.4 74.2 25 2.7 36.8 -72.3 -2.846
17:19 1015 29.97 844 24.92 23.5 74.2 24 2.2 36 -72.3 -2.846
17:20 1015 29.97 844 24.92 23.5 74.3 26 3.3 37.9 -72.4 -2.85
17:21 1015 29.97 844 24.92 23.5 74.3 26 2.9 37.3 -72.4 -2.85
17:22 1015 29.97 844 24.92 23.6 74.5 26 3.1 37.5 -72.4 -2.85
17:23 1015 29.97 844 24.92 23.7 74.7 24 2.3 36.1 -72.4 -2.85
17:24 1015 29.97 844 24.92 23.9 74.9 25 2.8 37 -72.4 -2.85
17:25 1015 29.97 844 24.92 24.1 75.3 29 5.2 41.3 -72.4 -2.85
17:26 1015 29.97 844 24.92 24.3 75.8 22 1.3 34.4 -72.4 -2.85
17:27 1015 29.97 844 24.92 24.5 76.2 23 2.2 35.9 -72.4 -2.85
17:28 1015 29.97 844 24.92 24.8 76.6 25 3.6 38.5 -72.4 -2.85
17:29 1015 29.97 844 24.92 25.1 77.1 25 3.9 39.1 -72.4 -2.85
17:30 1015 29.97 844 24.92 25.3 77.5 26 4.6 40.2 -72.4 -2.85
17:31 1015 29.97 844 24.92 25.4 77.8 20 1.4 34.6 -72.3 -2.846
17:32 1015 29.97 844 24.92 25.5 77.9 20 1 33.8 -72.3 -2.846
17:33 1015 29.97 844 24.92 25.5 77.9 21 2 35.6 -72.2 -2.843
17:34 1015 29.97 844 24.92 25.5 78 19 0.6 33.1 -72.2 -2.843
17:35 1015 29.97 844 24.92 25.6 78.1 22 2.7 36.9 -72.1 -2.839
17:36 1015 29.97 844 24.92 25.6 78.1 17 -0.8 30.5 -72 -2.835
17:37 1015 29.97 844 24.92 25.6 78.1 25 4.5 40.1 -71.9 -2.831
17:38 1015 29.97 844 24.92 25.7 78.2 20 1.6 34.9 -71.8 -2.827
17:39 1015 29.97 844 24.92 25.6 78.1 24 3.7 38.6 -71.7 -2.823
17:40 1015 29.97 844 24.92 25.6 78 19 0.7 33.2 -71.6 -2.819
17:41 1015 29.97 844 24.92 25.5 77.9 24 3.8 38.8 -71.5 -2.815
17:42 1015 29.97 844 24.92 25.5 77.9 21 1.6 34.9 -71.4 -2.811
17:43 1015 29.97 844 24.92 25.4 77.8 21 1.5 34.7 -71.2 -2.803
17:44 1015 29.97 844 24.92 25.4 77.6 19 0.4 32.7 -71.1 -2.799
17:45 1015 29.97 844 24.92 25.3 77.6 20 1.2 34.1 -71 -2.795
17:46 1015 29.97 844 24.92 25.5 77.8 19 0.5 32.8 -70.9 -2.791
17:47 1015 29.97 844 24.92 25.6 78.1 20 1.1 33.9 -70.7 -2.783
17:48 1015 29.97 844 24.92 25.8 78.4 24 3.9 39 -70.6 -2.78
17:49 1015 29.97 844 24.92 25.9 78.7 21 2.2 35.9 -70.4 -2.772
17:50 1015 29.97 844 24.92 25.9 78.6 19 0.8 33.4 -70.3 -2.768
17:51 1015 29.97 844 24.92 25.9 78.7 22 2.8 37.1 -70.2 -2.764
17:52 1015 29.97 844 24.92 25.9 78.6 20 1.3 34.3 -70.1 -2.76
17:53 1015 29.97 844 24.92 25.9 78.6 19 0.7 33.2 -69.92 -2.753
17:54 1015 29.97 844 24.92 25.8 78.4 22 2.6 36.6 -69.8 -2.748
17:55 1015 29.97 844 24.92 25.7 78.2 24 3.9 39.1 -69.66 -2.743
17:56 1015 29.97 844 24.92 25.6 78.1 21 2.2 35.9 -69.53 -2.737
17:57 1015 29.97 844 24.92 25.6 78 21 1.7 35.1 -69.39 -2.732
17:58 1015 29.97 844 24.92 25.5 77.9 22 2.4 36.3 -69.26 -2.727
17:59 1015 29.97 844 24.92 25.5 78 22 2.4 36.3 -69.14 -2.722
18:00 1015 29.97 844 24.92 25.5 78 20 1.3 34.4 -68.99 -2.716
18:01 1015 29.97 844 24.92 25.5 77.9 20 1 33.8 -68.87 -2.711
18:02 1015 29.97 844 24.92 25.5 77.9 23 2.8 37.1 -68.71 -2.705
18:03 1015 29.97 844 24.92 25.5 77.9 22 2.2 36 -68.58 -2.7
18:04 1015 29.97 844 24.92 25.3 77.5 25 4.1 39.4 -68.46 -2.695
18:05 1015 29.97 844 24.92 25 76.9 24 3.2 37.7 -68.37 -2.692
18:06 1015 29.97 844 24.92 24.6 76.3 26 4.1 39.4 -68.27 -2.688
18:07 1015 29.97 844 24.92 24.3 75.8 28 4.7 40.4 -68.17 -2.684
18:08 1015 29.97 844 24.92 24.1 75.3 32 6.4 43.5 -68.04 -2.679
18:09 1015 29.97 844 24.92 24.1 75.3 34 7.3 45.1 -67.91 -2.674
18:10 1015 29.97 844 24.92 24.1 75.4 31 6 42.8 -67.81 -2.67
18:11 1015 29.97 844 24.92 24.2 75.6 28 4.7 40.5 -67.71 -2.666
18:12 1015 29.97 844 24.92 24.2 75.5 26 3.5 38.3 -67.68 -2.665
18:13 1015 29.97 844 24.92 24.1 75.4 27 4.1 39.4 -67.64 -2.663
18:14 1015 29.97 844 24.92 24 75.3 32 6.3 43.4 -67.61 -2.662
18:15 1015 29.97 844 24.92 23.9 75 32 6.3 43.4 -67.54 -2.659
18:16 1015 29.97 844 24.92 24 75.1 32 6.4 43.6 -67.49 -2.657
18:17 1015 29.97 844 24.92 24.1 75.3 32 6.3 43.4 -67.43 -2.655
18:18 1015 29.97 844 24.92 24.3 75.7 27 4.4 39.9 -67.43 -2.655
18:19 1015 29.97 844 24.92 24.4 75.9 27 4.3 39.8 -67.39 -2.653
18:20 1015 29.97 844 24.92 24.5 76.1 30 5.8 42.4 -67.39 -2.653
18:21 1015 29.97 844 24.92 24.6 76.3 27 4.8 40.6 -67.36 -2.652
18:22 1015 29.97 844 24.92 24.7 76.5 25 3.7 38.7 -67.4 -2.654
18:23 1015 29.97 844 24.92 24.7 76.5 30 6.3 43.4 -67.39 -2.653
18:24 1015 29.97 844 24.92 24.8 76.6 22 2.2 35.9 -67.41 -2.654
18:25 1015 29.97 844 24.92 24.8 76.7 19 0.1 32.1 -67.43 -2.655
18:26 1015 29.97 844 24.92 24.9 76.7 27 4.8 40.7 -67.43 -2.655
18:27 1015 29.97 844 24.92 24.9 76.8 21 1.6 34.9 -67.43 -2.655
18:28 1015 29.97 844 24.92 24.9 76.8 30 6.2 43.2 -67.43 -2.655
18:29 1015 29.97 844 24.92 25 76.9 26 4.2 39.5 -67.43 -2.655
18:30 1015 29.97 844 24.92 25 76.9 26 4.2 39.6 -67.43 -2.655
18:31 1015 29.97 844 24.92 25 76.9 23 2.7 36.9 -67.43 -2.655
18:32 1015 29.97 844 24.92 24.8 76.7 22 1.8 35.2 -67.43 -2.655
18:33 1015 29.97 844 24.92 24.8 76.7 22 2.1 35.8 -67.43 -2.655
18:34 1015 29.97 844 24.92 24.8 76.6 29 5.9 42.5 -67.43 -2.655
18:35 1015 29.97 844 24.92 24.8 76.6 24 3.1 37.6 -67.43 -2.655
18:36 1015 29.97 844 24.92 24.8 76.7 30 6.1 43 -67.43 -2.655
18:37 1015 29.97 844 24.92 24.7 76.4 24 3.1 37.7 -67.44 -2.655
18:38 1015 29.97 844 24.92 24.6 76.2 25 3.4 38.2 -67.5 -2.657
18:39 1015 29.97 844 24.92 24.5 76.1 23 2.2 35.9 -67.5 -2.657
18:40 1015 29.97 844 24.92 24.5 76 28 5.1 41.1 -67.5 -2.657
18:41 1015 29.97 844 24.92 24.4 75.9 28 4.8 40.7 -67.5 -2.657
18:42 1015 29.97 844 24.92 24.2 75.5 27 4.4 40 -67.51 -2.658
18:43 1015 29.97 844 24.92 24 75.1 28 4.6 40.3 -67.57 -2.66
18:44 1015 29.97 844 24.92 23.7 74.7 26 3.2 37.8 -67.59 -2.661
18:45 1015 29.97 844 24.92 23.5 74.4 27 3.6 38.5 -67.63 -2.663
18:46 1015 29.97 844 24.92 23.4 74.1 28 4.1 39.4 -67.66 -2.664
18:47 1015 29.97 844 24.92 23.3 73.9 31 5.5 41.9 -67.7 -2.665
18:48 1015 29.97 844 24.92 23.1 73.6 31 5.1 41.2 -67.73 -2.667
18:49 1015 29.97 844 24.92 23.1 73.5 29 4.4 39.8 -67.77 -2.668
18:50 1015 29.97 844 24.92 23.2 73.8 31 5.2 41.3 -67.81 -2.67
18:51 1015 29.97 844 24.92 23.3 73.9 30 4.9 40.8 -67.86 -2.672
18:52 1015 29.97 844 24.92 23.4 74 27 3.5 38.3 -67.93 -2.674
18:53 1015 29.97 844 24.92 23.4 74.2 27 3.8 38.9 -68.01 -2.678
18:54 1015 29.97 844 24.92 23.4 74.1 28 4 39.2 -68.1 -2.681
18:55 1015 29.97 844 24.92 23.4 74.1 30 4.9 40.8 -68.19 -2.685
18:56 1015 29.97 844 24.92 23.3 73.9 29 4.6 40.2 -68.27 -2.688
18:57 1015 29.97 844 24.92 23.3 74 28 4.1 39.3 -68.34 -2.691
18:58 1015 29.97 844 24.92 23.4 74.2 30 4.9 40.8 -68.42 -2.694
18:59 1015 29.97 844 24.92 23.5 74.2 30 4.9 40.9 -68.52 -2.698
19:00 1015 29.97 844 24.92 23.4 74.2 31 5.6 42.1 -68.61 -2.701
19:01 1015 29.97 844 24.92 23.4 74.1 33 6.6 43.8 -68.69 -2.704
19:02 1015 29.97 844 24.92 23.3 74 29 4.6 40.4 -68.78 -2.708
19:03 1015 29.97 844 24.92 23.3 74 29 4.7 40.5 -68.87 -2.711
19:04 1015 29.97 844 24.92 23.5 74.2 28 4 39.1 -68.96 -2.715
19:05 1015 29.97 844 24.92 23.5 74.3 28 4.4 39.8 -69.07 -2.719
19:06 1015 29.97 844 24.92 23.4 74.2 31 5.4 41.7 -69.16 -2.723
19:07 1015 29.97 844 24.92 23.4 74.2 31 5.5 41.9 -69.26 -2.727
19:08 1015 29.97 844 24.92 23.3 74 30 4.9 40.9 -69.34 -2.73
19:09 1015 29.97 844 24.92 23.3 74 32 5.8 42.4 -69.44 -2.734
19:10 1015 29.97 844 24.92 23.3 73.9 31 5.4 41.7 -69.52 -2.737
19:11 1015 29.97 844 24.92 23.2 73.8 30 4.9 40.8 -69.6 -2.74
19:12 1015 29.97 844 24.92 23.2 73.7 27 3.5 38.3 -69.69 -2.744
19:13 1015 29.97 844 24.92 23.3 73.9 24 1.5 34.7 -69.78 -2.747
19:14 1015 29.97 844 24.92 23.4 74.1 23 1.2 34.2 -69.87 -2.751
19:15 1015 29.97 844 24.92 23.6 74.4 24 2.1 35.8 -69.97 -2.755
19:16 1015 29.97 844 24.92 23.6 74.5 23 1.6 34.9 -70.1 -2.76
19:17 1015 29.97 844 24.92 23.7 74.6 22 1.2 34.2 -70.2 -2.764
19:18 1015 29.97 844 24.92 23.7 74.7 23 1.6 34.8 -70.3 -2.768
19:19 1015 29.97 844 24.92 23.8 74.8 23 1.9 35.4 -70.4 -2.772
19:20 1015 29.97 844 24.92 23.8 74.8 25 2.6 36.7 -70.4 -2.772
19:21 1015 29.97 844 24.92 23.8 74.8 24 1.9 35.5 -70.5 -2.776
19:22 1015 29.97 844 24.92 23.7 74.7 26 3.3 37.9 -70.6 -2.78
19:23 1015 29.97 844 24.92 23.7 74.6 28 4.5 40.1 -70.7 -2.783
19:24 1015 29.97 844 24.92 23.6 74.5 29 4.5 40.1 -70.8 -2.787
19:25 1015 29.97 844 24.92 23.5 74.2 30 5.2 41.3 -70.8 -2.787
19:26 1015 29.97 844 24.92 23.3 74 37 8 46.5 -70.9 -2.791
19:27 1015 29.97 844 24.92 23 73.5 39 8.4 47.1 -71 -2.795
19:28 1015 29.97 844 24.92 22.7 72.8 41 9 48.1 -71 -2.795
19:29 1015 29.97 844 24.92 22.4 72.4 43 9.3 48.7 -71 -2.795
19:30 1015 29.97 844 24.92 22.2 72 36 6.5 43.7 -70.8 -2.787
19:31 1015 29.97 844 24.92 22.2 71.9 34 5.7 42.2 -71 -2.795
19:32 1015 29.97 844 24.92 22.3 72.2 31 4.8 40.6 -71.2 -2.803
19:33 1015 29.97 844 24.92 22.5 72.5 31 4.7 40.4 -71.3 -2.807
19:34 1015 29.97 844 24.92 22.6 72.7 35 6.7 44.1 -71.4 -2.811
19:35 1015 29.97 844 24.92 22.6 72.7 32 5.1 41.1 -71.5 -2.815
19:36 1015 29.97 844 24.92 22.6 72.7 32 5.5 41.9 -71.6 -2.819
19:37 1015 29.97 844 24.92 22.6 72.7 34 6.1 43 -71.7 -2.823
19:38 1015 29.97 844 24.92 22.6 72.7 41 8.9 48 -71.8 -2.827
19:39 1015 29.97 844 24.92 22.3 72.1 41 8.4 47.1 -71.9 -2.831
19:40 1015 29.97 844 24.92 22 71.6 40 8 46.5 -71.9 -2.831
19:41 1015 29.97 844 24.92 21.9 71.4 38 7.1 44.7 -72 -2.835
19:42 1015 29.97 844 24.92 21.8 71.2 37 6.7 44 -72.1 -2.839
19:43 1015 29.97 844 24.92 21.9 71.3 33 5.2 41.4 -72.2 -2.843
19:44 1015 29.97 844 24.92 21.9 71.4 37 6.6 43.9 -72.3 -2.846
19:45 1015 29.97 844 24.92 21.9 71.4 36 6.3 43.3 -72.4 -2.85
19:46 1015 29.97 844 24.92 21.8 71.2 37 6.7 44 -72.4 -2.85
19:47 1015 29.97 844 24.92 21.7 71.1 35 5.7 42.2 -72.5 -2.854
19:48 1015 29.97 844 24.92 21.6 71 34 5.1 41.2 -72.6 -2.858
19:49 1015 29.97 844 24.92 21.7 71 33 4.8 40.6 -72.7 -2.862
19:50 1015 29.97 844 24.92 21.7 71.1 31 4.1 39.4 -72.8 -2.866
19:51 1015 29.97 844 24.92 21.8 71.3 31 4 39.2 -72.9 -2.87
19:52 1015 29.97 844 24.92 21.9 71.5 32 4.5 40.1 -73 -2.874
19:53 1015 29.97 844 24.92 21.9 71.4 37 6.6 43.9 -73.1 -2.878
19:54 1015 29.97 844 24.92 21.7 71.1 41 8.2 46.7 -73.2 -2.882
19:55 1015 29.97 844 24.92 21.5 70.7 39 7 44.7 -73.3 -2.886
19:56 1015 29.97 844 24.92 21.4 70.5 40 7.4 45.3 -73.4 -2.89
19:57 1015 29.97 844 24.92 21.3 70.3 40 7.5 45.5 -73.4 -2.89
19:58 1015 29.97 844 24.92 21.1 70 43 8.2 46.8 -73.5 -2.894
19:59 1015 29.97 844 24.92 21 69.8 45 8.6 47.5 -73.6 -2.898
20:00 1015 29.97 844 24.92 20.9 69.5 40 6.8 44.2 -73.7 -2.902
20:01 1015 29.97 844 24.92 20.8 69.5 36 5.2 41.4 -73.8 -2.906
20:02 1015 29.97 844 24.92 20.9 69.6 37 5.9 42.6 -73.9 -2.909
20:03 1015 29.97 844 24.92 21 69.7 37 6 42.8 -74 -2.913
20:04 1015 29.97 844 24.92 21 69.9 38 6.2 43.2 -74.1 -2.917
20:05 1015 29.97 844 24.92 21.1 69.9 40 7.1 44.8 -74.2 -2.921
20:06 1015 29.97 844 24.92 21.1 70 40 7 44.5 -74.3 -2.925
20:07 1015 29.97 844 24.92 21.1 70 47 9.4 48.9 -74.3 -2.925
20:08 1015 29.97 844 24.92 20.9 69.6 37 5.9 42.7 -74.4 -2.929
20:09 1015 29.97 844 24.92 20.9 69.6 40 7 44.6 -74.5 -2.933
20:10 1015 29.97 844 24.92 20.8 69.5 42 7.5 45.6 -74.6 -2.937
20:11 1015 29.97 844 24.92 20.7 69.2 43 7.7 45.8 -74.6 -2.937
20:12 1015 29.97 844 24.92 20.5 68.9 44 8 46.4 -74.7 -2.941
20:13 1015 29.97 844 24.92 20.3 68.5 47 8.7 47.6 -74.8 -2.945
20:14 1015 29.97 844 24.92 20 68.1 46 8.4 47 -74.8 -2.945
20:15 1015 29.97 844 24.92 19.8 67.7 47 8.5 47.2 -74.9 -2.949
20:16 1015 29.97 844 24.92 19.7 67.5 48 8.7 47.6 -75 -2.953
20:17 1015 29.97 844 24.92 19.6 67.3 48 8.4 47.2 -75.1 -2.957
20:18 1015 29.97 844 24.92 19.5 67.2 48 8.3 47 -75.2 -2.961
20:19 1015 29.97 844 24.92 19.5 67 48 8.2 46.7 -75.3 -2.965
20:20 1015 29.97 844 24.92 19.4 67 50 8.7 47.7 -75.3 -2.965
20:21 1015 29.97 844 24.92 19.3 66.8 50 8.9 48 -75.3 -2.965
20:22 1015 29.97 844 24.92 19.2 66.5 52 9.1 48.4 -75.4 -2.969
20:23 1015 29.97 844 24.92 19.1 66.3 53 9.4 49 -75.4 -2.969
20:24 1015 29.97 844 24.92 18.9 66 55 9.9 49.7 -75.5 -2.972
20:25 1015 29.97 844 24.92 18.7 65.6 57 10.1 50.1 -75.5 -2.972
20:26 1015 29.97 844 24.92 18.4 65.2 59 10.3 50.5 -75.6 -2.976
20:27 1015 29.97 844 24.92 18.3 64.9 57 9.8 49.6 -75.6 -2.976
20:28 1015 29.97 844 24.92 18.2 64.7 56 9.3 48.7 -75.7 -2.98
20:29 1015 29.97 844 24.92 18.2 64.8 54 8.8 47.9 -75.8 -2.984
20:30 1015 29.97 844 24.92 18.3 65 54 9 48.2 -75.9 -2.988
20:31 1015 29.97 844 24.92 18.4 65 54 8.9 48 -76 -2.992
20:32 1015 29.97 844 24.92 18.3 64.9 54 9 48.3 -76.2 -3
20:33 1015 29.97 844 24.92 18.2 64.7 54 8.7 47.7 -76.3 -3.004
20:34 1015 29.97 844 24.92 18.1 64.7 53 8.6 47.6 -76.4 -3.008
20:35 1015 29.97 844 24.92 18.1 64.5 55 9 48.2 -76.5 -3.012
20:36 1015 29.97 844 24.92 18 64.3 56 9.1 48.5 -76.6 -3.016
20:37 1015 29.97 844 24.92 17.8 64 57 9.2 48.6 -76.7 -3.02
20:38 1015 29.97 844 24.92 17.6 63.8 57 9.1 48.4 -76.9 -3.028
20:39 1015 29.97 844 24.92 17.6 63.6 57 9 48.2 -77 -3.031
20:40 1015 29.97 844 24.92 17.6 63.7 56 8.9 48 -77.1 -3.035
20:41 1015 29.97 844 24.92 17.7 63.9 56 8.8 47.9 -77.2 -3.039
20:42 1015 29.97 844 24.92 17.7 63.8 56 8.8 47.8 -77.3 -3.043
20:43 1015 29.97 844 24.92 17.6 63.7 55 8.5 47.3 -77.4 -3.047
20:44 1015 29.97 844 24.92 17.6 63.7 55 8.5 47.3 -77.5 -3.051
20:45 1015 29.97 844 24.92 17.6 63.6 55 8.7 47.6 -77.6 -3.055
20:46 1015 29.97 844 24.92 17.6 63.7 56 8.9 48.1 -77.7 -3.059
20:47 1015 29.97 844 24.92 17.5 63.4 58 9.2 48.6 -77.8 -3.063
20:48 1015 29.97 844 24.92 17.4 63.3 54 8.1 46.6 -77.9 -3.067
20:49 1015 29.97 844 24.92 17.5 63.5 54 8.2 46.7 -78 -3.071
20:50 1015 29.97 844 24.92 17.6 63.6 56 8.8 47.8 -78.1 -3.075
20:51 1015 29.97 844 24.92 17.5 63.5 56 8.7 47.7 -78.2 -3.079
20:52 1015 29.97 844 24.92 17.5 63.5 54 8.2 46.7 -78.3 -3.083
20:53 1015 29.97 844 24.92 17.5 63.6 56 8.7 47.6 -78.4 -3.087
20:54 1015 29.97 844 24.92 17.5 63.5 57 8.9 48.1 -78.5 -3.091
20:55 1015 29.97 844 24.92 17.4 63.3 57 8.8 47.8 -78.6 -3.094
20:56 1015 29.97 844 24.92 17.3 63.2 55 8.3 47 -78.7 -3.098
20:57 1015 29.97 844 24.92 17.4 63.4 54 8.2 46.8 -78.8 -3.102
20:58 1015 29.97 844 24.92 17.5 63.5 55 8.6 47.4 -78.9 -3.106
20:59 1015 29.97 844 24.92 17.4 63.3 56 8.6 47.6 -78.9 -3.106
21:00 1015 29.97 844 24.92 17.3 63.1 55 8.3 47 -79 -3.11
21:01 1015 29.97 844 24.92 17.2 63 55 8.2 46.8 -79.1 -3.114
21:02 1015 29.97 844 24.92 17.3 63.1 55 8.4 47 -79.2 -3.118
21:03 1015 29.97 844 24.92 17.3 63.1 53 7.8 46 -79.3 -3.122
21:04 1015 29.97 844 24.92 17.3 63.2 54 8 46.3 -79.4 -3.126
21:05 1015 29.97 844 24.92 17.4 63.3 53 7.9 46.3 -79.4 -3.126
21:06 1015 29.97 844 24.92 17.5 63.4 52 7.7 45.8 -79.5 -3.13
21:07 1015 29.97 844 24.92 17.6 63.6 53 7.9 46.2 -79.5 -3.13
21:08 1015 29.97 844 24.92 17.7 63.8 52 7.8 46 -79.5 -3.13
21:09 1015 29.97 844 24.92 17.7 63.9 53 8 46.4 -79.6 -3.134
21:10 1015 29.97 844 24.92 17.7 63.9 51 7.7 45.9 -79.6 -3.134
21:11 1015 29.97 844 24.92 17.7 63.9 52 7.9 46.3 -79.7 -3.138
21:12 1015 29.97 844 24.92 17.7 63.9 52 7.7 45.9 -79.8 -3.142
21:13 1015 29.97 844 24.92 17.8 64 52 7.9 46.2 -79.8 -3.142
21:14 1015 29.97 844 24.92 17.8 64 53 8.1 46.7 -79.9 -3.146
21:15 1015 29.97 844 24.92 17.8 64 53 8.1 46.6 -80 -3.15
21:16 1015 29.97 844 24.92 17.7 63.8 53 8 46.4 -80 -3.15
21:17 1015 29.97 844 24.92 17.6 63.7 53 8 46.3 -80.1 -3.154
21:18 1015 29.97 844 24.92 17.5 63.6 53 8 46.4 -80.1 -3.154
21:19 1015 29.97 844 24.92 17.4 63.4 55 8.3 47 -80.2 -3.157
21:20 1015 29.97 844 24.92 17.3 63.1 54 8 46.4 -80.2 -3.157
21:21 1015 29.97 844 24.92 17.2 62.9 55 8.1 46.5 -80.3 -3.161
21:22 1015 29.97 844 24.92 17.1 62.8 55 8 46.4 -80.3 -3.161
21:23 1015 29.97 844 24.92 17.1 62.8 55 8.2 46.8 -80.4 -3.165
21:24 1015 29.97 844 24.92 17 62.6 56 8.4 47 -80.4 -3.165
21:25 1015 29.97 844 24.92 16.9 62.4 57 8.5 47.4 -80.5 -3.169
21:26 1015 29.97 844 24.92 16.8 62.2 56 8.2 46.7 -80.5 -3.169
21:27 1015 29.97 844 24.92 16.8 62.2 57 8.3 46.9 -80.6 -3.173
21:28 1015 29.97 844 24.92 16.8 62.2 57 8.4 47.1 -80.6 -3.173
21:29 1015 29.97 844 24.92 16.7 62 58 8.3 47 -80.7 -3.177
21:30 1015 29.97 844 24.92 16.5 61.7 59 8.5 47.2 -80.7 -3.177
21:31 1015 29.97 844 24.92 16.4 61.4 60 8.6 47.5 -80.8 -3.181
21:32 1015 29.97 844 24.92 16.2 61.2 59 8.3 46.9 -80.8 -3.181
21:33 1015 29.97 844 24.92 16.2 61.1 59 8.2 46.8 -80.9 -3.185
21:34 1015 29.97 844 24.92 16.2 61.1 59 8.3 47 -80.9 -3.185
21:35 1015 29.97 844 24.92 16.1 60.9 59 8.2 46.7 -81 -3.189
21:36 1015 29.97 844 24.92 16 60.8 60 8.4 47.1 -81 -3.189
21:37 1015 29.97 844 24.92 15.9 60.7 61 8.5 47.3 -81.1 -3.193
21:38 1015 29.97 844 24.92 15.8 60.5 61 8.3 47 -81.1 -3.193
21:39 1015 29.97 844 24.92 15.7 60.3 61 8.2 46.8 -81.2 -3.197
21:40 1015 29.97 844 24.92 15.7 60.2 60 8.1 46.6 -81.2 -3.197
21:41 1015 29.97 844 24.92 15.7 60.2 60 8 46.4 -81.3 -3.201
21:42 1015 29.97 844 24.92 15.7 60.3 61 8.2 46.8 -81.3 -3.201
21:43 1015 29.97 844 24.92 15.7 60.2 61 8.4 47.1 -81.4 -3.205
21:44 1015 29.97 844 24.92 15.6 60.1 61 8.2 46.8 -81.4 -3.205
21:45 1015 29.97 844 24.92 15.6 60.1 62 8.3 47 -81.5 -3.209
21:46 1015 29.97 844 24.92 15.5 60 62 8.3 47 -81.5 -3.209
21:47 1015 29.97 844 24.92 15.4 59.8 63 8.5 47.2 -81.6 -3.213
21:48 1015 29.97 844 24.92 15.3 59.6 63 8.4 47.1 -81.6 -3.213
21:49 1015 29.97 844 24.92 15.2 59.4 63 8.4 47.1 -81.7 -3.217
21:50 1015 29.97 844 24.92 15.2 59.4 63 8.3 47 -81.7 -3.217
21:51 1015 29.97 844 24.92 15.2 59.3 64 8.5 47.2 -81.8 -3.22
21:52 1015 29.97 844 24.92 15.1 59.3 63 8.2 46.7 -81.8 -3.22
21:53 1015 29.97 844 24.92 15.2 59.4 61 7.8 46 -81.9 -3.224
21:54 1015 29.97 844 24.92 15.4 59.7 61 8 46.4 -81.9 -3.224
21:55 1015 29.97 844 24.92 15.5 59.8 61 8 46.4 -82 -3.228
21:56 1015 29.97 844 24.92 15.5 59.8 61 8 46.5 -82.1 -3.232
21:57 1015 29.97 844 24.92 15.5 59.9 61 8.1 46.5 -82.1 -3.232
21:58 1015 29.97 844 24.92 15.6 60 60 7.8 46.1 -82.2 -3.236
21:59 1015 29.97 844 24.92 15.7 60.3 59 7.8 46.1 -82.2 -3.236
22:00 1015 29.97 844 24.92 15.8 60.5 58 7.7 45.8 -82.3 -3.24
22:01 1015 29.97 844 24.92 16 60.7 59 8.1 46.6 -82.3 -3.24
22:02 1015 29.97 844 24.92 16 60.7 60 8.3 46.9 -82.4 -3.244
22:03 1015 29.97 844 24.92 15.9 60.6 60 8.2 46.8 -82.4 -3.244
22:04 1015 29.97 844 24.92 15.9 60.5 60 8.2 46.8 -82.5 -3.248
22:05 1015 29.97 844 24.92 15.9 60.5 60 8.1 46.6 -82.5 -3.248
22:06 1015 29.97 844 24.92 15.9 60.6 59 7.9 46.2 -82.6 -3.252
22:07 1015 29.97 844 24.92 16 60.7 59 8 46.3 -82.6 -3.252
22:08 1015 29.97 844 24.92 16.1 60.9 58 7.8 46.1 -82.6 -3.252
22:09 1015 29.97 844 24.92 16.2 61.1 58 8 46.4 -82.7 -3.256
22:10 1015 29.97 844 24.92 16.2 61.2 57 7.7 45.9 -82.7 -3.256
22:11 1015 29.97 844 24.92 16.3 61.4 56 7.7 45.8 -82.8 -3.26
22:12 1015 29.97 844 24.92 16.3 61.4 57 7.9 46.2 -82.8 -3.26
22:13 1015 29.97 844 24.92 16.3 61.4 56 7.5 45.5 -82.8 -3.26
22:14 1015 29.97 844 24.92 16.4 61.5 55 7.5 45.5 -82.9 -3.264
22:15 1015 29.97 844 24.92 16.5 61.7 53 6.9 44.5 -82.9 -3.264
22:16 1015 29.97 844 24.92 16.7 62 53 7.2 45 -83 -3.268
22:17 1015 29.97 844 24.92 16.7 62.1 53 7.2 44.9 -83 -3.268
22:18 1015 29.97 844 24.92 16.8 62.3 52 7.2 44.9 -83 -3.268
22:19 1015 29.97 844 24.92 16.9 62.3 52 7.2 44.9 -83 -3.268
22:20 1015 29.97 844 24.92 16.8 62.3 53 7.3 45.1 -83.1 -3.272
22:21 1015 29.97 844 24.92 16.8 62.2 52 7.1 44.8 -83.1 -3.272
22:22 1015 29.97 844 24.92 16.8 62.2 53 7.2 45 -83.1 -3.272
22:23 1015 29.97 844 24.92 16.7 62.1 53 7.1 44.7 -83.1 -3.272
22:24 1015 29.97 844 24.92 16.7 62.1 52 7 44.6 -83.2 -3.276
22:25 1015 29.97 844 24.92 16.7 62.1 52 6.9 44.5 -83.2 -3.276
22:26 1015 29.97 844 24.92 16.7 62.1 51 6.7 44.1 -83.2 -3.276
22:27 1015 29.97 844 24.92 16.7 62.1 52 6.9 44.3 -83.2 -3.276
22:28 1015 29.97 844 24.92 16.7 62.1 52 7 44.6 -83.2 -3.276
22:29 1015 29.97 844 24.92 16.6 61.9 52 6.9 44.5 -83.3 -3.28
22:30 1015 29.97 844 24.92 16.6 61.9 52 6.9 44.4 -83.3 -3.28
22:31 1015 29.97 844 24.92 16.6 61.9 54 7.2 45 -83.3 -3.28
22:32 1015 29.97 844 24.92 16.4 61.6 55 7.4 45.3 -83.3 -3.28
22:33 1015 29.97 844 24.92 16.3 61.3 56 7.4 45.4 -83.3 -3.28
22:34 1015 29.97 844 24.92 16.1 61 55 7.1 44.7 -83.3 -3.28
22:35 1015 29.97 844 24.92 16 60.9 56 7.3 45.1 -83.3 -3.28
22:36 1015 29.97 844 24.92 16 60.8 57 7.5 45.5 -83.4 -3.283
22:37 1015 29.97 844 24.92 15.9 60.7 56 7.2 45 -83.4 -3.283
22:38 1015 29.97 844 24.92 15.8 60.5 57 7.4 45.2 -83.4 -3.283
22:39 1015 29.97 844 24.92 15.9 60.5 57 7.3 45.2 -83.4 -3.283
22:40 1015 29.97 844 24.92 15.8 60.4 56 7.1 44.9 -83.4 -3.283
22:41 1015 29.97 844 24.92 15.8 60.5 56 7.1 44.8 -83.4 -3.283
22:42 1015 29.97 844 24.92 15.9 60.7 54 6.8 44.2 -83.5 -3.287
22:43 1015 29.97 844 24.92 16 60.9 53 6.5 43.7 -83.5 -3.287
22:44 1015 29.97 844 24.92 16.3 61.4 50 6 42.8 -83.5 -3.287
22:45 1015 29.97 844 24.92 16.7 62 50 6.2 43.2 -83.5 -3.287
22:46 1015 29.97 844 24.92 17 62.5 48 6 42.7 -83.5 -3.287
22:47 1015 29.97 844 24.92 17.2 63 47 6 42.7 -83.6 -3.291
22:48 1015 29.97 844 24.92 17.4 63.2 46 5.6 42.1 -83.6 -3.291
22:49 1015 29.97 844 24.92 17.5 63.5 48 6.4 43.5 -83.6 -3.291
22:50 1015 29.97 844 24.92 17.5 63.4 47 6.2 43.2 -83.6 -3.291
22:51 1015 29.97 844 24.92 17.5 63.4 47 6.2 43.2 -83.7 -3.295
22:52 1015 29.97 844 24.92 17.4 63.3 48 6.3 43.4 -83.7 -3.295
22:53 1015 29.97 844 24.92 17.3 63.1 49 6.6 44 -83.7 -3.295
22:54 1015 29.97 844 24.92 17.2 62.9 49 6.4 43.6 -83.7 -3.295
22:55 1015 29.97 844 24.92 17.2 63 48 6.2 43.2 -83.7 -3.295
22:56 1015 29.97 844 24.92 17.3 63.1 47 5.9 42.6 -83.7 -3.295
22:57 1015 29.97 844 24.92 17.3 63.2 46 5.6 42.1 -83.7 -3.295
22:58 1015 29.97 844 24.92 17.5 63.4 46 5.8 42.5 -83.7 -3.295
22:59 1015 29.97 844 24.92 17.5 63.5 46 6 42.7 -83.7 -3.295
23:00 1015 29.97 844 24.92 17.5 63.5 46 6 42.8 -83.7 -3.295
23:01 1015 29.97 844 24.92 17.4 63.3 47 6.1 43 -83.7 -3.295
23:02 1015 29.97 844 24.92 17.2 63 48 6.1 43 -83.7 -3.295
23:03 1015 29.97 844 24.92 17.2 62.9 48 6.3 43.4 -83.7 -3.295
23:04 1015 29.97 844 24.92 17.1 62.8 47 5.9 42.6 -83.7 -3.295
23:05 1015 29.97 844 24.92 17.1 62.8 45 5.3 41.5 -83.7 -3.295
23:06 1015 29.97 844 24.92 17.3 63.1 47 6.1 43 -83.7 -3.295
23:07 1015 29.97 844 24.92 17.3 63.2 47 6.1 43 -83.7 -3.295
23:08 1015 29.97 844 24.92 17.3 63.1 48 6.4 43.5 -83.7 -3.295
23:09 1015 29.97 844 24.92 17.2 62.9 48 6.2 43.1 -83.7 -3.295
23:10 1015 29.97 844 24.92 17.1 62.8 48 6 42.9 -83.8 -3.299
23:11 1015 29.97 844 24.92 17 62.6 49 6.3 43.3 -83.8 -3.299
23:12 1015 29.97 844 24.92 16.9 62.3 51 6.7 44.1 -83.8 -3.299
23:13 1015 29.97 844 24.92 16.8 62.3 50 6.4 43.6 -83.8 -3.299
23:14 1015 29.97 844 24.92 16.9 62.5 47 5.7 42.2 -83.8 -3.299
23:15 1015 29.97 844 24.92 17.1 62.8 49 6.3 43.3 -83.8 -3.299
23:16 1015 29.97 844 24.92 17.1 62.7 49 6.3 43.3 -83.8 -3.299
23:17 1015 29.97 844 24.92 17 62.6 48 5.9 42.7 -83.8 -3.299
23:18 1015 29.97 844 24.92 17 62.6 49 6.3 43.3 -83.8 -3.299
23:19 1015 29.97 844 24.92 17 62.7 47 5.9 42.6 -83.8 -3.299
23:20 1015 29.97 844 24.92 17.2 63 44 5 41 -83.8 -3.299
23:21 1015 29.97 844 24.92 17.4 63.4 46 5.8 42.5 -83.9 -3.303
23:22 1015 29.97 844 24.92 17.5 63.5 46 5.8 42.5 -83.9 -3.303
23:23 1015 29.97 844 24.92 17.6 63.6 46 5.8 42.4 -83.9 -3.303
23:24 1015 29.97 844 24.92 17.6 63.7 46 5.8 42.5 -83.9 -3.303
23:25 1015 29.97 844 24.92 17.6 63.7 45 5.8 42.5 -83.9 -3.303
23:26 1015 29.97 844 24.92 17.6 63.6 46 5.9 42.6 -83.9 -3.303
23:27 1015 29.97 844 24.92 17.5 63.6 44 5.4 41.7 -83.9 -3.303
23:28 1015 29.97 844 24.92 17.6 63.7 45 5.5 41.9 -83.9 -3.303
23:29 1015 29.97 844 24.92 17.6 63.7 45 5.5 42 -83.9 -3.303
23:30 1015 29.97 844 24.92 17.6 63.7 45 5.8 42.4 -83.9 -3.303
23:31 1015 29.97 844 24.92 17.6 63.7 45 5.5 41.9 -83.9 -3.303
23:32 1015 29.97 844 24.92 17.7 63.9 44 5.6 42 -83.9 -3.303
23:33 1015 29.97 844 24.92 17.7 63.9 44 5.6 42 -83.9 -3.303
23:34 1015 29.97 844 24.92 17.7 63.9 45 5.6 42.1 -83.9 -3.303
23:35 1015 29.97 844 24.92 17.6 63.7 47 6.2 43.2 -83.9 -3.303
23:36 1015 29.97 844 24.92 17.3 63.2 49 6.7 44.1 -83.9 -3.303
23:37 1015 29.97 844 24.92 17 62.5 50 6.6 43.9 -83.9 -3.303
23:38 1015 29.97 844 24.92 16.7 62.1 50 6.4 43.5 -83.9 -3.303
23:39 1015 29.97 844 24.92 16.6 61.9 50 6.3 43.4 -83.9 -3.303
23:40 1015 29.97 844 24.92 16.5 61.7 50 6.1 42.9 -83.9 -3.303
23:41 1015 29.97 844 24.92 16.5 61.7 50 6.2 43.2 -83.9 -3.303
23:42 1015 29.97 844 24.92 16.4 61.5 52 6.6 43.8 -83.9 -3.303
23:43 1015 29.97 844 24.92 16.2 61.1 52 6.3 43.3 -83.9 -3.303
23:44 1015 29.97 844 24.92 16.1 60.9 53 6.5 43.7 -83.9 -3.303
23:45 1015 29.97 844 24.92 15.9 60.6 55 6.8 44.3 -83.9 -3.303
23:46 1015 29.97 844 24.92 15.7 60.3 54 6.6 43.8 -83.9 -3.303
23:47 1015 29.97 844 24.92 15.6 60.2 54 6.4 43.4 -83.9 -3.303
23:48 1015 29.97 844 24.92 15.7 60.3 53 6.3 43.3 -84 -3.307
23:49 1015 29.97 844 24.92 15.7 60.3 52 6 42.9 -84 -3.307
23:50 1015 29.97 844 24.92 15.8 60.5 53 6.2 43.2 -84 -3.307
23:51 1015 29.97 844 24.92 15.9 60.5 51 5.8 42.4 -84 -3.307
23:52 1015 29.97 844 24.92 16.2 61.2 46 4.8 40.7 -84.1 -3.311
23:53 1015 29.97 844 24.92 16.8 62.3 45 4.8 40.6 -84.1 -3.311
23:54 1015 29.97 844 24.92 17.2 63 44 5 40.9 -84.1 -3.311
23:55 1015 29.97 844 24.92 17.3 63.2 43 4.9 40.7 -84.1 -3.311
23:56 1015 29.97 844 24.92 17.2 63 47 5.8 42.5 -84.1 -3.311
23:57 1015 29.97 844 24.92 16.9 62.4 49 6.3 43.3 -84.1 -3.311
23:58 1015 29.97 844 24.92 16.5 61.8 51 6.3 43.4 -84.1 -3.311
23:59 1015 29.97 844 24.92 16.2 61.1 52 6.3 43.4 -84.2 -3.315
24:00 1015 29.97 844 24.92 15.8 60.5 53 6.4 43.6 -84.2 -3.315